<?xml version="1.0" encoding="UTF-8" standalone="no" ?>
<gpx xmlns="http://www.topografix.com/GPX/1/1" xmlns:xsi="http://www.w3.org/2001/XMLSchema-instance" xsi:schemaLocation="http://www.topografix.com/GPX/1/1 http://www.topografix.com/GPX/1/1/gpx.xsd" version="1.1" creator="VisuGPX - https://www.visugpx.com">
  <metadata>
    <name>CORSE - PEDESTRE - Senetosa tour et phare depuis Tizzano</name>
    <desc><![CDATA[Randonnée littorale]]></desc>
  </metadata>
  <wpt lat="41.55893" lon="8.79645">
    <ele>26</ele>
    <name><![CDATA[carrefour de pistes]]></name>
    <desc><![CDATA[19-JUN-15 12:14:27]]></desc>
    <cmt><![CDATA[19-JUN-15 12:14:27]]></cmt>
  </wpt>
  <wpt lat="41.54713" lon="8.82843">
    <ele>8</ele>
    <name><![CDATA[Parking voitures]]></name>
    <desc><![CDATA[19-JUN-15 15:05:58]]></desc>
    <cmt><![CDATA[19-JUN-15 15:05:58]]></cmt>
  </wpt>
  <wpt lat="41.56433" lon="8.79871">
    <ele>129</ele>
    <name><![CDATA[Tour génoise de Senetosa]]></name>
    <desc><![CDATA[19-JUN-15 12:41:42]]></desc>
    <cmt><![CDATA[19-JUN-15 12:41:42]]></cmt>
  </wpt>
  <trk>
    <name><![CDATA[ACTIVE LOG 001]]></name>
    <trkseg>
      <trkpt lat="41.54927" lon="8.83318">
        <ele>9.7506103515625</ele>
        <time>2015-06-19T08:34:19Z</time>
      </trkpt>
      <trkpt lat="41.54927" lon="8.83318">
        <ele>9.7506103515625</ele>
        <time>2015-06-19T08:34:21Z</time>
      </trkpt>
      <trkpt lat="41.54926" lon="8.83318">
        <ele>10.711791992188</ele>
        <time>2015-06-19T08:34:23Z</time>
      </trkpt>
      <trkpt lat="41.54911" lon="8.83316">
        <ele>10.711791992188</ele>
        <time>2015-06-19T08:34:41Z</time>
      </trkpt>
      <trkpt lat="41.54899" lon="8.83314">
        <ele>9.7506103515625</ele>
        <time>2015-06-19T08:34:54Z</time>
      </trkpt>
      <trkpt lat="41.5489" lon="8.83312">
        <ele>9.7506103515625</ele>
        <time>2015-06-19T08:35:03Z</time>
      </trkpt>
      <trkpt lat="41.54869" lon="8.83314">
        <ele>10.231201171875</ele>
        <time>2015-06-19T08:35:25Z</time>
      </trkpt>
      <trkpt lat="41.54864" lon="8.8331">
        <ele>11.673217773438</ele>
        <time>2015-06-19T08:35:35Z</time>
      </trkpt>
      <trkpt lat="41.54873" lon="8.83322">
        <ele>9.2698974609375</ele>
        <time>2015-06-19T08:35:47Z</time>
      </trkpt>
      <trkpt lat="41.54856" lon="8.83321">
        <ele>8.30859375</ele>
        <time>2015-06-19T08:36:05Z</time>
      </trkpt>
      <trkpt lat="41.54853" lon="8.83321">
        <ele>9.7506103515625</ele>
        <time>2015-06-19T08:36:24Z</time>
      </trkpt>
      <trkpt lat="41.5486" lon="8.83322">
        <ele>8.7891845703125</ele>
        <time>2015-06-19T08:36:46Z</time>
      </trkpt>
      <trkpt lat="41.54864" lon="8.83323">
        <ele>9.7506103515625</ele>
        <time>2015-06-19T08:36:50Z</time>
      </trkpt>
      <trkpt lat="41.54871" lon="8.8332">
        <ele>8.7891845703125</ele>
        <time>2015-06-19T08:36:58Z</time>
      </trkpt>
      <trkpt lat="41.54876" lon="8.83317">
        <ele>8.7891845703125</ele>
        <time>2015-06-19T08:37:02Z</time>
      </trkpt>
      <trkpt lat="41.54899" lon="8.83311">
        <ele>8.30859375</ele>
        <time>2015-06-19T08:37:23Z</time>
      </trkpt>
      <trkpt lat="41.54926" lon="8.83319">
        <ele>8.7891845703125</ele>
        <time>2015-06-19T08:37:46Z</time>
      </trkpt>
      <trkpt lat="41.54947" lon="8.83327">
        <ele>9.2698974609375</ele>
        <time>2015-06-19T08:38:04Z</time>
      </trkpt>
      <trkpt lat="41.54951" lon="8.83316">
        <ele>9.2698974609375</ele>
        <time>2015-06-19T08:38:19Z</time>
      </trkpt>
      <trkpt lat="41.5495" lon="8.83314">
        <ele>9.2698974609375</ele>
        <time>2015-06-19T08:38:20Z</time>
      </trkpt>
      <trkpt lat="41.54941" lon="8.83304">
        <ele>12.634399414062</ele>
        <time>2015-06-19T08:38:32Z</time>
      </trkpt>
      <trkpt lat="41.54939" lon="8.83302">
        <ele>13.595825195312</ele>
        <time>2015-06-19T08:38:34Z</time>
      </trkpt>
      <trkpt lat="41.54923" lon="8.83285">
        <ele>15.518432617188</ele>
        <time>2015-06-19T08:38:54Z</time>
      </trkpt>
      <trkpt lat="41.54901" lon="8.83264">
        <ele>18.40234375</ele>
        <time>2015-06-19T08:39:16Z</time>
      </trkpt>
      <trkpt lat="41.54882" lon="8.83247">
        <ele>20.8056640625</ele>
        <time>2015-06-19T08:39:34Z</time>
      </trkpt>
      <trkpt lat="41.54865" lon="8.83217">
        <ele>20.324951171875</ele>
        <time>2015-06-19T08:39:57Z</time>
      </trkpt>
      <trkpt lat="41.54847" lon="8.83177">
        <ele>21.286376953125</ele>
        <time>2015-06-19T08:40:23Z</time>
      </trkpt>
      <trkpt lat="41.54839" lon="8.83133">
        <ele>19.844360351562</ele>
        <time>2015-06-19T08:40:48Z</time>
      </trkpt>
      <trkpt lat="41.54839" lon="8.83095">
        <ele>19.36376953125</ele>
        <time>2015-06-19T08:41:10Z</time>
      </trkpt>
      <trkpt lat="41.54844" lon="8.83059">
        <ele>21.286376953125</ele>
        <time>2015-06-19T08:41:31Z</time>
      </trkpt>
      <trkpt lat="41.54848" lon="8.83024">
        <ele>21.286376953125</ele>
        <time>2015-06-19T08:41:51Z</time>
      </trkpt>
      <trkpt lat="41.5485" lon="8.82987">
        <ele>19.36376953125</ele>
        <time>2015-06-19T08:42:13Z</time>
      </trkpt>
      <trkpt lat="41.54853" lon="8.82958">
        <ele>15.9990234375</ele>
        <time>2015-06-19T08:42:32Z</time>
      </trkpt>
      <trkpt lat="41.54844" lon="8.82926">
        <ele>15.037719726562</ele>
        <time>2015-06-19T08:42:53Z</time>
      </trkpt>
      <trkpt lat="41.54838" lon="8.8292">
        <ele>14.557006835938</ele>
        <time>2015-06-19T08:43:08Z</time>
      </trkpt>
      <trkpt lat="41.54821" lon="8.82903">
        <ele>15.037719726562</ele>
        <time>2015-06-19T08:43:26Z</time>
      </trkpt>
      <trkpt lat="41.54794" lon="8.82887">
        <ele>15.9990234375</ele>
        <time>2015-06-19T08:43:47Z</time>
      </trkpt>
      <trkpt lat="41.54769" lon="8.82874">
        <ele>15.518432617188</ele>
        <time>2015-06-19T08:44:06Z</time>
      </trkpt>
      <trkpt lat="41.54744" lon="8.8286">
        <ele>15.518432617188</ele>
        <time>2015-06-19T08:44:27Z</time>
      </trkpt>
      <trkpt lat="41.54735" lon="8.82833">
        <ele>15.037719726562</ele>
        <time>2015-06-19T08:44:45Z</time>
      </trkpt>
      <trkpt lat="41.54735" lon="8.8283">
        <ele>14.557006835938</ele>
        <time>2015-06-19T08:44:59Z</time>
      </trkpt>
      <trkpt lat="41.54728" lon="8.82832">
        <ele>14.557006835938</ele>
        <time>2015-06-19T08:45:14Z</time>
      </trkpt>
      <trkpt lat="41.54728" lon="8.82833">
        <ele>14.076416015625</ele>
        <time>2015-06-19T08:45:36Z</time>
      </trkpt>
      <trkpt lat="41.54721" lon="8.82833">
        <ele>14.076416015625</ele>
        <time>2015-06-19T08:46:03Z</time>
      </trkpt>
      <trkpt lat="41.54717" lon="8.82826">
        <ele>14.557006835938</ele>
        <time>2015-06-19T08:46:19Z</time>
      </trkpt>
      <trkpt lat="41.54719" lon="8.82826">
        <ele>15.037719726562</ele>
        <time>2015-06-19T08:46:31Z</time>
      </trkpt>
      <trkpt lat="41.54725" lon="8.82829">
        <ele>13.595825195312</ele>
        <time>2015-06-19T08:46:46Z</time>
      </trkpt>
      <trkpt lat="41.54723" lon="8.8283">
        <ele>15.037719726562</ele>
        <time>2015-06-19T08:46:49Z</time>
      </trkpt>
      <trkpt lat="41.54714" lon="8.82842">
        <ele>12.634399414062</ele>
        <time>2015-06-19T08:47:05Z</time>
      </trkpt>
      <trkpt lat="41.54714" lon="8.82841">
        <ele>15.037719726562</ele>
        <time>2015-06-19T08:47:08Z</time>
      </trkpt>
      <trkpt lat="41.54715" lon="8.82838">
        <ele>14.557006835938</ele>
        <time>2015-06-19T08:47:10Z</time>
      </trkpt>
      <trkpt lat="41.54715" lon="8.82821">
        <ele>14.557006835938</ele>
        <time>2015-06-19T08:47:22Z</time>
      </trkpt>
      <trkpt lat="41.54712" lon="8.82817">
        <ele>13.595825195312</ele>
        <time>2015-06-19T08:47:26Z</time>
      </trkpt>
      <trkpt lat="41.54708" lon="8.82819">
        <ele>15.037719726562</ele>
        <time>2015-06-19T08:47:31Z</time>
      </trkpt>
      <trkpt lat="41.54699" lon="8.82831">
        <ele>14.076416015625</ele>
        <time>2015-06-19T08:47:42Z</time>
      </trkpt>
      <trkpt lat="41.54698" lon="8.82832">
        <ele>16.479736328125</ele>
        <time>2015-06-19T08:47:44Z</time>
      </trkpt>
      <trkpt lat="41.54692" lon="8.82837">
        <ele>16.479736328125</ele>
        <time>2015-06-19T08:47:51Z</time>
      </trkpt>
      <trkpt lat="41.54691" lon="8.82841">
        <ele>13.115112304688</ele>
        <time>2015-06-19T08:47:54Z</time>
      </trkpt>
      <trkpt lat="41.54691" lon="8.82842">
        <ele>13.115112304688</ele>
        <time>2015-06-19T08:47:55Z</time>
      </trkpt>
      <trkpt lat="41.54691" lon="8.82843">
        <ele>15.9990234375</ele>
        <time>2015-06-19T08:47:56Z</time>
      </trkpt>
      <trkpt lat="41.5469" lon="8.82848">
        <ele>15.9990234375</ele>
        <time>2015-06-19T08:47:59Z</time>
      </trkpt>
      <trkpt lat="41.54679" lon="8.82851">
        <ele>16.96044921875</ele>
        <time>2015-06-19T08:48:12Z</time>
      </trkpt>
      <trkpt lat="41.54669" lon="8.82846">
        <ele>17.921752929688</ele>
        <time>2015-06-19T08:48:22Z</time>
      </trkpt>
      <trkpt lat="41.54662" lon="8.82839">
        <ele>18.40234375</ele>
        <time>2015-06-19T08:48:30Z</time>
      </trkpt>
      <trkpt lat="41.5466" lon="8.82835">
        <ele>16.96044921875</ele>
        <time>2015-06-19T08:48:33Z</time>
      </trkpt>
      <trkpt lat="41.54656" lon="8.82834">
        <ele>17.441162109375</ele>
        <time>2015-06-19T08:48:37Z</time>
      </trkpt>
      <trkpt lat="41.54644" lon="8.82831">
        <ele>15.518432617188</ele>
        <time>2015-06-19T08:48:47Z</time>
      </trkpt>
      <trkpt lat="41.54633" lon="8.82832">
        <ele>14.557006835938</ele>
        <time>2015-06-19T08:48:58Z</time>
      </trkpt>
      <trkpt lat="41.54625" lon="8.82819">
        <ele>14.557006835938</ele>
        <time>2015-06-19T08:49:12Z</time>
      </trkpt>
      <trkpt lat="41.54616" lon="8.82813">
        <ele>13.595825195312</ele>
        <time>2015-06-19T08:49:24Z</time>
      </trkpt>
      <trkpt lat="41.54608" lon="8.82816">
        <ele>13.595825195312</ele>
        <time>2015-06-19T08:49:33Z</time>
      </trkpt>
      <trkpt lat="41.54606" lon="8.82815">
        <ele>13.115112304688</ele>
        <time>2015-06-19T08:49:36Z</time>
      </trkpt>
      <trkpt lat="41.546" lon="8.82818">
        <ele>12.634399414062</ele>
        <time>2015-06-19T08:49:42Z</time>
      </trkpt>
      <trkpt lat="41.5459" lon="8.82842">
        <ele>12.15380859375</ele>
        <time>2015-06-19T08:49:59Z</time>
      </trkpt>
      <trkpt lat="41.54586" lon="8.82848">
        <ele>11.192504882812</ele>
        <time>2015-06-19T08:50:04Z</time>
      </trkpt>
      <trkpt lat="41.54577" lon="8.8287">
        <ele>10.231201171875</ele>
        <time>2015-06-19T08:50:20Z</time>
      </trkpt>
      <trkpt lat="41.54574" lon="8.82874">
        <ele>8.7891845703125</ele>
        <time>2015-06-19T08:50:33Z</time>
      </trkpt>
      <trkpt lat="41.54572" lon="8.82875">
        <ele>7.827880859375</ele>
        <time>2015-06-19T08:50:45Z</time>
      </trkpt>
      <trkpt lat="41.54567" lon="8.8287">
        <ele>7.827880859375</ele>
        <time>2015-06-19T08:50:50Z</time>
      </trkpt>
      <trkpt lat="41.54566" lon="8.82857">
        <ele>8.7891845703125</ele>
        <time>2015-06-19T08:50:59Z</time>
      </trkpt>
      <trkpt lat="41.54565" lon="8.82844">
        <ele>8.30859375</ele>
        <time>2015-06-19T08:51:10Z</time>
      </trkpt>
      <trkpt lat="41.54553" lon="8.82839">
        <ele>7.34716796875</ele>
        <time>2015-06-19T08:51:24Z</time>
      </trkpt>
      <trkpt lat="41.5455" lon="8.82837">
        <ele>7.34716796875</ele>
        <time>2015-06-19T08:51:27Z</time>
      </trkpt>
      <trkpt lat="41.54551" lon="8.82815">
        <ele>7.34716796875</ele>
        <time>2015-06-19T08:51:44Z</time>
      </trkpt>
      <trkpt lat="41.54549" lon="8.82808">
        <ele>6.866455078125</ele>
        <time>2015-06-19T08:51:53Z</time>
      </trkpt>
      <trkpt lat="41.54546" lon="8.82803">
        <ele>5.9052734375</ele>
        <time>2015-06-19T08:51:57Z</time>
      </trkpt>
      <trkpt lat="41.54545" lon="8.82793">
        <ele>6.3858642578125</ele>
        <time>2015-06-19T08:52:05Z</time>
      </trkpt>
      <trkpt lat="41.54547" lon="8.82788">
        <ele>6.3858642578125</ele>
        <time>2015-06-19T08:52:10Z</time>
      </trkpt>
      <trkpt lat="41.54544" lon="8.82783">
        <ele>5.9052734375</ele>
        <time>2015-06-19T08:52:14Z</time>
      </trkpt>
      <trkpt lat="41.54543" lon="8.82766">
        <ele>6.3858642578125</ele>
        <time>2015-06-19T08:52:30Z</time>
      </trkpt>
      <trkpt lat="41.54544" lon="8.82764">
        <ele>6.866455078125</ele>
        <time>2015-06-19T08:52:51Z</time>
      </trkpt>
      <trkpt lat="41.54547" lon="8.82764">
        <ele>6.866455078125</ele>
        <time>2015-06-19T08:52:56Z</time>
      </trkpt>
      <trkpt lat="41.54558" lon="8.8276">
        <ele>7.827880859375</ele>
        <time>2015-06-19T08:53:11Z</time>
      </trkpt>
      <trkpt lat="41.54559" lon="8.82759">
        <ele>8.7891845703125</ele>
        <time>2015-06-19T08:53:13Z</time>
      </trkpt>
      <trkpt lat="41.54566" lon="8.82755">
        <ele>7.827880859375</ele>
        <time>2015-06-19T08:53:32Z</time>
      </trkpt>
      <trkpt lat="41.54577" lon="8.8274">
        <ele>7.827880859375</ele>
        <time>2015-06-19T08:53:45Z</time>
      </trkpt>
      <trkpt lat="41.5458" lon="8.82718">
        <ele>7.827880859375</ele>
        <time>2015-06-19T08:54:00Z</time>
      </trkpt>
      <trkpt lat="41.54582" lon="8.82699">
        <ele>7.827880859375</ele>
        <time>2015-06-19T08:54:16Z</time>
      </trkpt>
      <trkpt lat="41.54584" lon="8.82692">
        <ele>7.827880859375</ele>
        <time>2015-06-19T08:54:21Z</time>
      </trkpt>
      <trkpt lat="41.54588" lon="8.82691">
        <ele>9.7506103515625</ele>
        <time>2015-06-19T08:54:25Z</time>
      </trkpt>
      <trkpt lat="41.5459" lon="8.82674">
        <ele>8.30859375</ele>
        <time>2015-06-19T08:54:37Z</time>
      </trkpt>
      <trkpt lat="41.5459" lon="8.82669">
        <ele>8.7891845703125</ele>
        <time>2015-06-19T08:54:41Z</time>
      </trkpt>
      <trkpt lat="41.54589" lon="8.82654">
        <ele>7.34716796875</ele>
        <time>2015-06-19T08:54:56Z</time>
      </trkpt>
      <trkpt lat="41.54589" lon="8.82653">
        <ele>6.866455078125</ele>
        <time>2015-06-19T08:54:57Z</time>
      </trkpt>
      <trkpt lat="41.54591" lon="8.82647">
        <ele>5.9052734375</ele>
        <time>2015-06-19T08:55:13Z</time>
      </trkpt>
      <trkpt lat="41.54596" lon="8.82638">
        <ele>5.424560546875</ele>
        <time>2015-06-19T08:55:29Z</time>
      </trkpt>
      <trkpt lat="41.54601" lon="8.82629">
        <ele>3.982666015625</ele>
        <time>2015-06-19T08:55:43Z</time>
      </trkpt>
      <trkpt lat="41.54606" lon="8.82622">
        <ele>4.4632568359375</ele>
        <time>2015-06-19T08:55:59Z</time>
      </trkpt>
      <trkpt lat="41.5461" lon="8.82616">
        <ele>4.4632568359375</ele>
        <time>2015-06-19T08:56:14Z</time>
      </trkpt>
      <trkpt lat="41.54612" lon="8.82612">
        <ele>4.94384765625</ele>
        <time>2015-06-19T08:56:28Z</time>
      </trkpt>
      <trkpt lat="41.54616" lon="8.82608">
        <ele>5.9052734375</ele>
        <time>2015-06-19T08:56:44Z</time>
      </trkpt>
      <trkpt lat="41.54624" lon="8.82598">
        <ele>5.424560546875</ele>
        <time>2015-06-19T08:57:03Z</time>
      </trkpt>
      <trkpt lat="41.54631" lon="8.82591">
        <ele>7.827880859375</ele>
        <time>2015-06-19T08:57:19Z</time>
      </trkpt>
      <trkpt lat="41.54634" lon="8.82591">
        <ele>7.34716796875</ele>
        <time>2015-06-19T08:57:23Z</time>
      </trkpt>
      <trkpt lat="41.54643" lon="8.82585">
        <ele>7.827880859375</ele>
        <time>2015-06-19T08:57:40Z</time>
      </trkpt>
      <trkpt lat="41.54643" lon="8.82575">
        <ele>6.866455078125</ele>
        <time>2015-06-19T08:58:00Z</time>
      </trkpt>
      <trkpt lat="41.54642" lon="8.82572">
        <ele>4.94384765625</ele>
        <time>2015-06-19T08:58:02Z</time>
      </trkpt>
      <trkpt lat="41.54642" lon="8.82571">
        <ele>4.94384765625</ele>
        <time>2015-06-19T08:58:03Z</time>
      </trkpt>
      <trkpt lat="41.54646" lon="8.82544">
        <ele>8.30859375</ele>
        <time>2015-06-19T08:58:21Z</time>
      </trkpt>
      <trkpt lat="41.54646" lon="8.82543">
        <ele>8.7891845703125</ele>
        <time>2015-06-19T08:58:22Z</time>
      </trkpt>
      <trkpt lat="41.54645" lon="8.82512">
        <ele>7.34716796875</ele>
        <time>2015-06-19T08:58:43Z</time>
      </trkpt>
      <trkpt lat="41.54642" lon="8.82481">
        <ele>8.7891845703125</ele>
        <time>2015-06-19T08:59:03Z</time>
      </trkpt>
      <trkpt lat="41.54639" lon="8.82477">
        <ele>8.7891845703125</ele>
        <time>2015-06-19T08:59:07Z</time>
      </trkpt>
      <trkpt lat="41.54633" lon="8.82473">
        <ele>9.2698974609375</ele>
        <time>2015-06-19T08:59:12Z</time>
      </trkpt>
      <trkpt lat="41.54625" lon="8.82454">
        <ele>8.7891845703125</ele>
        <time>2015-06-19T08:59:26Z</time>
      </trkpt>
      <trkpt lat="41.54616" lon="8.82442">
        <ele>9.2698974609375</ele>
        <time>2015-06-19T08:59:44Z</time>
      </trkpt>
      <trkpt lat="41.54617" lon="8.82433">
        <ele>10.711791992188</ele>
        <time>2015-06-19T08:59:52Z</time>
      </trkpt>
      <trkpt lat="41.54618" lon="8.82429">
        <ele>11.192504882812</ele>
        <time>2015-06-19T08:59:56Z</time>
      </trkpt>
      <trkpt lat="41.54617" lon="8.82413">
        <ele>11.192504882812</ele>
        <time>2015-06-19T09:00:08Z</time>
      </trkpt>
      <trkpt lat="41.54609" lon="8.82399">
        <ele>11.673217773438</ele>
        <time>2015-06-19T09:00:28Z</time>
      </trkpt>
      <trkpt lat="41.54599" lon="8.82397">
        <ele>11.192504882812</ele>
        <time>2015-06-19T09:00:41Z</time>
      </trkpt>
      <trkpt lat="41.54596" lon="8.82395">
        <ele>9.7506103515625</ele>
        <time>2015-06-19T09:00:50Z</time>
      </trkpt>
      <trkpt lat="41.54589" lon="8.82379">
        <ele>10.231201171875</ele>
        <time>2015-06-19T09:01:03Z</time>
      </trkpt>
      <trkpt lat="41.54584" lon="8.82363">
        <ele>12.15380859375</ele>
        <time>2015-06-19T09:01:17Z</time>
      </trkpt>
      <trkpt lat="41.54583" lon="8.82362">
        <ele>12.634399414062</ele>
        <time>2015-06-19T09:01:20Z</time>
      </trkpt>
      <trkpt lat="41.54581" lon="8.8236">
        <ele>11.673217773438</ele>
        <time>2015-06-19T09:01:23Z</time>
      </trkpt>
      <trkpt lat="41.54581" lon="8.82352">
        <ele>12.15380859375</ele>
        <time>2015-06-19T09:01:30Z</time>
      </trkpt>
      <trkpt lat="41.54579" lon="8.82341">
        <ele>13.115112304688</ele>
        <time>2015-06-19T09:01:44Z</time>
      </trkpt>
      <trkpt lat="41.54581" lon="8.82331">
        <ele>15.037719726562</ele>
        <time>2015-06-19T09:01:57Z</time>
      </trkpt>
      <trkpt lat="41.54582" lon="8.8232">
        <ele>17.441162109375</ele>
        <time>2015-06-19T09:02:14Z</time>
      </trkpt>
      <trkpt lat="41.54583" lon="8.82307">
        <ele>18.883056640625</ele>
        <time>2015-06-19T09:02:28Z</time>
      </trkpt>
      <trkpt lat="41.54583" lon="8.82302">
        <ele>19.36376953125</ele>
        <time>2015-06-19T09:02:32Z</time>
      </trkpt>
      <trkpt lat="41.54583" lon="8.82297">
        <ele>19.36376953125</ele>
        <time>2015-06-19T09:02:36Z</time>
      </trkpt>
      <trkpt lat="41.54586" lon="8.82288">
        <ele>18.883056640625</ele>
        <time>2015-06-19T09:02:44Z</time>
      </trkpt>
      <trkpt lat="41.54584" lon="8.82274">
        <ele>18.883056640625</ele>
        <time>2015-06-19T09:03:02Z</time>
      </trkpt>
      <trkpt lat="41.54583" lon="8.82273">
        <ele>19.36376953125</ele>
        <time>2015-06-19T09:03:08Z</time>
      </trkpt>
      <trkpt lat="41.54582" lon="8.82256">
        <ele>18.40234375</ele>
        <time>2015-06-19T09:03:25Z</time>
      </trkpt>
      <trkpt lat="41.54583" lon="8.82245">
        <ele>16.479736328125</ele>
        <time>2015-06-19T09:03:41Z</time>
      </trkpt>
      <trkpt lat="41.54581" lon="8.82241">
        <ele>15.518432617188</ele>
        <time>2015-06-19T09:04:05Z</time>
      </trkpt>
      <trkpt lat="41.54579" lon="8.82232">
        <ele>12.15380859375</ele>
        <time>2015-06-19T09:04:19Z</time>
      </trkpt>
      <trkpt lat="41.54578" lon="8.82217">
        <ele>10.231201171875</ele>
        <time>2015-06-19T09:04:36Z</time>
      </trkpt>
      <trkpt lat="41.54578" lon="8.82215">
        <ele>9.7506103515625</ele>
        <time>2015-06-19T09:04:39Z</time>
      </trkpt>
      <trkpt lat="41.54578" lon="8.82205">
        <ele>8.7891845703125</ele>
        <time>2015-06-19T09:04:55Z</time>
      </trkpt>
      <trkpt lat="41.54582" lon="8.82179">
        <ele>7.34716796875</ele>
        <time>2015-06-19T09:05:13Z</time>
      </trkpt>
      <trkpt lat="41.54584" lon="8.82165">
        <ele>6.866455078125</ele>
        <time>2015-06-19T09:05:28Z</time>
      </trkpt>
      <trkpt lat="41.54584" lon="8.82161">
        <ele>6.3858642578125</ele>
        <time>2015-06-19T09:05:46Z</time>
      </trkpt>
      <trkpt lat="41.54591" lon="8.8214">
        <ele>6.866455078125</ele>
        <time>2015-06-19T09:06:03Z</time>
      </trkpt>
      <trkpt lat="41.54593" lon="8.82133">
        <ele>6.3858642578125</ele>
        <time>2015-06-19T09:06:09Z</time>
      </trkpt>
      <trkpt lat="41.54605" lon="8.82107">
        <ele>6.3858642578125</ele>
        <time>2015-06-19T09:06:31Z</time>
      </trkpt>
      <trkpt lat="41.5461" lon="8.82097">
        <ele>6.3858642578125</ele>
        <time>2015-06-19T09:06:49Z</time>
      </trkpt>
      <trkpt lat="41.54607" lon="8.82095">
        <ele>6.3858642578125</ele>
        <time>2015-06-19T09:06:55Z</time>
      </trkpt>
      <trkpt lat="41.54594" lon="8.82081">
        <ele>4.94384765625</ele>
        <time>2015-06-19T09:07:13Z</time>
      </trkpt>
      <trkpt lat="41.54582" lon="8.82069">
        <ele>4.94384765625</ele>
        <time>2015-06-19T09:07:32Z</time>
      </trkpt>
      <trkpt lat="41.54581" lon="8.82067">
        <ele>5.9052734375</ele>
        <time>2015-06-19T09:07:51Z</time>
      </trkpt>
      <trkpt lat="41.54579" lon="8.8207">
        <ele>5.9052734375</ele>
        <time>2015-06-19T09:08:05Z</time>
      </trkpt>
      <trkpt lat="41.54583" lon="8.82069">
        <ele>5.424560546875</ele>
        <time>2015-06-19T09:08:29Z</time>
      </trkpt>
      <trkpt lat="41.54595" lon="8.82073">
        <ele>5.424560546875</ele>
        <time>2015-06-19T09:08:46Z</time>
      </trkpt>
      <trkpt lat="41.54605" lon="8.82074">
        <ele>6.3858642578125</ele>
        <time>2015-06-19T09:08:59Z</time>
      </trkpt>
      <trkpt lat="41.54619" lon="8.8207">
        <ele>7.827880859375</ele>
        <time>2015-06-19T09:09:17Z</time>
      </trkpt>
      <trkpt lat="41.54635" lon="8.82066">
        <ele>7.827880859375</ele>
        <time>2015-06-19T09:09:35Z</time>
      </trkpt>
      <trkpt lat="41.54642" lon="8.82068">
        <ele>7.827880859375</ele>
        <time>2015-06-19T09:09:42Z</time>
      </trkpt>
      <trkpt lat="41.54645" lon="8.82068">
        <ele>8.30859375</ele>
        <time>2015-06-19T09:09:47Z</time>
      </trkpt>
      <trkpt lat="41.54662" lon="8.82051">
        <ele>7.827880859375</ele>
        <time>2015-06-19T09:10:07Z</time>
      </trkpt>
      <trkpt lat="41.54674" lon="8.82051">
        <ele>7.827880859375</ele>
        <time>2015-06-19T09:10:17Z</time>
      </trkpt>
      <trkpt lat="41.54675" lon="8.82044">
        <ele>7.827880859375</ele>
        <time>2015-06-19T09:10:22Z</time>
      </trkpt>
      <trkpt lat="41.54682" lon="8.82041">
        <ele>7.827880859375</ele>
        <time>2015-06-19T09:10:29Z</time>
      </trkpt>
      <trkpt lat="41.54691" lon="8.82038">
        <ele>8.30859375</ele>
        <time>2015-06-19T09:10:38Z</time>
      </trkpt>
      <trkpt lat="41.54693" lon="8.82036">
        <ele>7.827880859375</ele>
        <time>2015-06-19T09:10:40Z</time>
      </trkpt>
      <trkpt lat="41.54699" lon="8.82018">
        <ele>8.30859375</ele>
        <time>2015-06-19T09:10:53Z</time>
      </trkpt>
      <trkpt lat="41.54706" lon="8.81983">
        <ele>7.827880859375</ele>
        <time>2015-06-19T09:11:15Z</time>
      </trkpt>
      <trkpt lat="41.5471" lon="8.81967">
        <ele>7.827880859375</ele>
        <time>2015-06-19T09:11:31Z</time>
      </trkpt>
      <trkpt lat="41.54724" lon="8.81953">
        <ele>7.34716796875</ele>
        <time>2015-06-19T09:11:46Z</time>
      </trkpt>
      <trkpt lat="41.54727" lon="8.81947">
        <ele>7.827880859375</ele>
        <time>2015-06-19T09:11:50Z</time>
      </trkpt>
      <trkpt lat="41.54728" lon="8.81918">
        <ele>7.34716796875</ele>
        <time>2015-06-19T09:12:08Z</time>
      </trkpt>
      <trkpt lat="41.54737" lon="8.81892">
        <ele>7.34716796875</ele>
        <time>2015-06-19T09:12:25Z</time>
      </trkpt>
      <trkpt lat="41.54739" lon="8.81863">
        <ele>7.34716796875</ele>
        <time>2015-06-19T09:12:43Z</time>
      </trkpt>
      <trkpt lat="41.54736" lon="8.8185">
        <ele>6.866455078125</ele>
        <time>2015-06-19T09:12:59Z</time>
      </trkpt>
      <trkpt lat="41.54737" lon="8.81847">
        <ele>7.34716796875</ele>
        <time>2015-06-19T09:13:20Z</time>
      </trkpt>
      <trkpt lat="41.54745" lon="8.81821">
        <ele>7.34716796875</ele>
        <time>2015-06-19T09:13:37Z</time>
      </trkpt>
      <trkpt lat="41.54747" lon="8.81811">
        <ele>7.827880859375</ele>
        <time>2015-06-19T09:13:56Z</time>
      </trkpt>
      <trkpt lat="41.54751" lon="8.81799">
        <ele>7.827880859375</ele>
        <time>2015-06-19T09:14:10Z</time>
      </trkpt>
      <trkpt lat="41.54756" lon="8.81795">
        <ele>7.34716796875</ele>
        <time>2015-06-19T09:14:20Z</time>
      </trkpt>
      <trkpt lat="41.5478" lon="8.81794">
        <ele>8.30859375</ele>
        <time>2015-06-19T09:14:40Z</time>
      </trkpt>
      <trkpt lat="41.54796" lon="8.81785">
        <ele>8.7891845703125</ele>
        <time>2015-06-19T09:14:59Z</time>
      </trkpt>
      <trkpt lat="41.54799" lon="8.81783">
        <ele>8.7891845703125</ele>
        <time>2015-06-19T09:15:23Z</time>
      </trkpt>
      <trkpt lat="41.548" lon="8.8178">
        <ele>8.30859375</ele>
        <time>2015-06-19T09:15:26Z</time>
      </trkpt>
      <trkpt lat="41.54801" lon="8.81777">
        <ele>7.827880859375</ele>
        <time>2015-06-19T09:15:28Z</time>
      </trkpt>
      <trkpt lat="41.54817" lon="8.81755">
        <ele>7.827880859375</ele>
        <time>2015-06-19T09:15:51Z</time>
      </trkpt>
      <trkpt lat="41.54835" lon="8.81747">
        <ele>7.827880859375</ele>
        <time>2015-06-19T09:16:08Z</time>
      </trkpt>
      <trkpt lat="41.54836" lon="8.81746">
        <ele>8.30859375</ele>
        <time>2015-06-19T09:16:10Z</time>
      </trkpt>
      <trkpt lat="41.54838" lon="8.81744">
        <ele>7.827880859375</ele>
        <time>2015-06-19T09:16:12Z</time>
      </trkpt>
      <trkpt lat="41.5485" lon="8.81727">
        <ele>8.30859375</ele>
        <time>2015-06-19T09:16:31Z</time>
      </trkpt>
      <trkpt lat="41.54855" lon="8.81725">
        <ele>7.827880859375</ele>
        <time>2015-06-19T09:16:45Z</time>
      </trkpt>
      <trkpt lat="41.54856" lon="8.81726">
        <ele>7.827880859375</ele>
        <time>2015-06-19T09:16:47Z</time>
      </trkpt>
      <trkpt lat="41.5486" lon="8.81729">
        <ele>7.827880859375</ele>
        <time>2015-06-19T09:16:52Z</time>
      </trkpt>
      <trkpt lat="41.54869" lon="8.81729">
        <ele>7.34716796875</ele>
        <time>2015-06-19T09:17:05Z</time>
      </trkpt>
      <trkpt lat="41.54873" lon="8.81734">
        <ele>8.30859375</ele>
        <time>2015-06-19T09:17:18Z</time>
      </trkpt>
      <trkpt lat="41.54877" lon="8.81738">
        <ele>8.7891845703125</ele>
        <time>2015-06-19T09:17:34Z</time>
      </trkpt>
      <trkpt lat="41.54883" lon="8.81739">
        <ele>7.34716796875</ele>
        <time>2015-06-19T09:17:46Z</time>
      </trkpt>
      <trkpt lat="41.54891" lon="8.81743">
        <ele>8.7891845703125</ele>
        <time>2015-06-19T09:18:00Z</time>
      </trkpt>
      <trkpt lat="41.54897" lon="8.81751">
        <ele>9.2698974609375</ele>
        <time>2015-06-19T09:18:13Z</time>
      </trkpt>
      <trkpt lat="41.54902" lon="8.81754">
        <ele>10.231201171875</ele>
        <time>2015-06-19T09:18:17Z</time>
      </trkpt>
      <trkpt lat="41.54906" lon="8.81757">
        <ele>9.2698974609375</ele>
        <time>2015-06-19T09:18:25Z</time>
      </trkpt>
      <trkpt lat="41.54921" lon="8.81761">
        <ele>9.7506103515625</ele>
        <time>2015-06-19T09:18:37Z</time>
      </trkpt>
      <trkpt lat="41.54926" lon="8.81759">
        <ele>9.7506103515625</ele>
        <time>2015-06-19T09:18:41Z</time>
      </trkpt>
      <trkpt lat="41.54943" lon="8.81755">
        <ele>10.711791992188</ele>
        <time>2015-06-19T09:18:58Z</time>
      </trkpt>
      <trkpt lat="41.54948" lon="8.81751">
        <ele>10.231201171875</ele>
        <time>2015-06-19T09:19:07Z</time>
      </trkpt>
      <trkpt lat="41.54952" lon="8.81749">
        <ele>9.7506103515625</ele>
        <time>2015-06-19T09:19:11Z</time>
      </trkpt>
      <trkpt lat="41.5496" lon="8.81754">
        <ele>10.711791992188</ele>
        <time>2015-06-19T09:19:20Z</time>
      </trkpt>
      <trkpt lat="41.54972" lon="8.81754">
        <ele>12.634399414062</ele>
        <time>2015-06-19T09:19:35Z</time>
      </trkpt>
      <trkpt lat="41.54986" lon="8.81754">
        <ele>14.557006835938</ele>
        <time>2015-06-19T09:19:52Z</time>
      </trkpt>
      <trkpt lat="41.54999" lon="8.81764">
        <ele>17.441162109375</ele>
        <time>2015-06-19T09:20:09Z</time>
      </trkpt>
      <trkpt lat="41.55002" lon="8.81768">
        <ele>18.40234375</ele>
        <time>2015-06-19T09:20:19Z</time>
      </trkpt>
      <trkpt lat="41.55018" lon="8.81774">
        <ele>19.844360351562</ele>
        <time>2015-06-19T09:20:36Z</time>
      </trkpt>
      <trkpt lat="41.55028" lon="8.81782">
        <ele>22.24755859375</ele>
        <time>2015-06-19T09:20:48Z</time>
      </trkpt>
      <trkpt lat="41.55031" lon="8.81785">
        <ele>22.24755859375</ele>
        <time>2015-06-19T09:20:52Z</time>
      </trkpt>
      <trkpt lat="41.55035" lon="8.81792">
        <ele>24.170288085938</ele>
        <time>2015-06-19T09:20:58Z</time>
      </trkpt>
      <trkpt lat="41.55036" lon="8.81793">
        <ele>23.689575195312</ele>
        <time>2015-06-19T09:20:59Z</time>
      </trkpt>
      <trkpt lat="41.55042" lon="8.81799">
        <ele>25.131713867188</ele>
        <time>2015-06-19T09:21:06Z</time>
      </trkpt>
      <trkpt lat="41.55054" lon="8.81806">
        <ele>26.092895507812</ele>
        <time>2015-06-19T09:21:20Z</time>
      </trkpt>
      <trkpt lat="41.55058" lon="8.81806">
        <ele>26.573608398438</ele>
        <time>2015-06-19T09:21:24Z</time>
      </trkpt>
      <trkpt lat="41.55061" lon="8.81808">
        <ele>26.573608398438</ele>
        <time>2015-06-19T09:21:28Z</time>
      </trkpt>
      <trkpt lat="41.55067" lon="8.81823">
        <ele>28.015502929688</ele>
        <time>2015-06-19T09:21:43Z</time>
      </trkpt>
      <trkpt lat="41.55072" lon="8.81838">
        <ele>29.45751953125</ele>
        <time>2015-06-19T09:21:57Z</time>
      </trkpt>
      <trkpt lat="41.55072" lon="8.81838">
        <ele>29.45751953125</ele>
        <time>2015-06-19T09:21:58Z</time>
      </trkpt>
      <trkpt lat="41.55078" lon="8.81846">
        <ele>30.899536132812</ele>
        <time>2015-06-19T09:22:12Z</time>
      </trkpt>
      <trkpt lat="41.55084" lon="8.81851">
        <ele>33.302856445312</ele>
        <time>2015-06-19T09:22:25Z</time>
      </trkpt>
      <trkpt lat="41.55088" lon="8.81855">
        <ele>35.225463867188</ele>
        <time>2015-06-19T09:22:38Z</time>
      </trkpt>
      <trkpt lat="41.55093" lon="8.81857">
        <ele>37.148071289062</ele>
        <time>2015-06-19T09:22:50Z</time>
      </trkpt>
      <trkpt lat="41.55095" lon="8.81861">
        <ele>39.070678710938</ele>
        <time>2015-06-19T09:23:06Z</time>
      </trkpt>
      <trkpt lat="41.551" lon="8.81866">
        <ele>40.993408203125</ele>
        <time>2015-06-19T09:23:18Z</time>
      </trkpt>
      <trkpt lat="41.55105" lon="8.81872">
        <ele>43.396606445312</ele>
        <time>2015-06-19T09:23:31Z</time>
      </trkpt>
      <trkpt lat="41.55106" lon="8.81872">
        <ele>43.396606445312</ele>
        <time>2015-06-19T09:23:32Z</time>
      </trkpt>
      <trkpt lat="41.55115" lon="8.81883">
        <ele>46.76123046875</ele>
        <time>2015-06-19T09:23:49Z</time>
      </trkpt>
      <trkpt lat="41.55125" lon="8.81891">
        <ele>49.645263671875</ele>
        <time>2015-06-19T09:24:05Z</time>
      </trkpt>
      <trkpt lat="41.55137" lon="8.81895">
        <ele>50.606567382812</ele>
        <time>2015-06-19T09:24:21Z</time>
      </trkpt>
      <trkpt lat="41.55145" lon="8.81898">
        <ele>49.16455078125</ele>
        <time>2015-06-19T09:24:39Z</time>
      </trkpt>
      <trkpt lat="41.55167" lon="8.81898">
        <ele>46.76123046875</ele>
        <time>2015-06-19T09:24:59Z</time>
      </trkpt>
      <trkpt lat="41.55183" lon="8.8189">
        <ele>44.838623046875</ele>
        <time>2015-06-19T09:25:14Z</time>
      </trkpt>
      <trkpt lat="41.55194" lon="8.81889">
        <ele>43.396606445312</ele>
        <time>2015-06-19T09:25:28Z</time>
      </trkpt>
      <trkpt lat="41.55204" lon="8.81883">
        <ele>41.954711914062</ele>
        <time>2015-06-19T09:25:42Z</time>
      </trkpt>
      <trkpt lat="41.55215" lon="8.81873">
        <ele>39.55126953125</ele>
        <time>2015-06-19T09:25:59Z</time>
      </trkpt>
      <trkpt lat="41.55225" lon="8.81872">
        <ele>38.109375</ele>
        <time>2015-06-19T09:26:15Z</time>
      </trkpt>
      <trkpt lat="41.55235" lon="8.81866">
        <ele>35.7060546875</ele>
        <time>2015-06-19T09:26:32Z</time>
      </trkpt>
      <trkpt lat="41.55241" lon="8.81867">
        <ele>33.302856445312</ele>
        <time>2015-06-19T09:26:50Z</time>
      </trkpt>
      <trkpt lat="41.55249" lon="8.81869">
        <ele>29.938110351562</ele>
        <time>2015-06-19T09:27:02Z</time>
      </trkpt>
      <trkpt lat="41.5526" lon="8.8186">
        <ele>27.054321289062</ele>
        <time>2015-06-19T09:27:22Z</time>
      </trkpt>
      <trkpt lat="41.55266" lon="8.81859">
        <ele>25.131713867188</ele>
        <time>2015-06-19T09:27:41Z</time>
      </trkpt>
      <trkpt lat="41.55275" lon="8.81854">
        <ele>24.170288085938</ele>
        <time>2015-06-19T09:27:55Z</time>
      </trkpt>
      <trkpt lat="41.55277" lon="8.81851">
        <ele>24.170288085938</ele>
        <time>2015-06-19T09:27:58Z</time>
      </trkpt>
      <trkpt lat="41.55288" lon="8.81839">
        <ele>22.24755859375</ele>
        <time>2015-06-19T09:28:13Z</time>
      </trkpt>
      <trkpt lat="41.55294" lon="8.81833">
        <ele>22.24755859375</ele>
        <time>2015-06-19T09:28:21Z</time>
      </trkpt>
      <trkpt lat="41.553" lon="8.81817">
        <ele>20.8056640625</ele>
        <time>2015-06-19T09:28:36Z</time>
      </trkpt>
      <trkpt lat="41.55306" lon="8.81803">
        <ele>19.36376953125</ele>
        <time>2015-06-19T09:28:51Z</time>
      </trkpt>
      <trkpt lat="41.55306" lon="8.81799">
        <ele>18.883056640625</ele>
        <time>2015-06-19T09:28:54Z</time>
      </trkpt>
      <trkpt lat="41.55306" lon="8.81796">
        <ele>18.883056640625</ele>
        <time>2015-06-19T09:28:56Z</time>
      </trkpt>
      <trkpt lat="41.55308" lon="8.81787">
        <ele>18.40234375</ele>
        <time>2015-06-19T09:29:02Z</time>
      </trkpt>
      <trkpt lat="41.55318" lon="8.81777">
        <ele>16.96044921875</ele>
        <time>2015-06-19T09:29:18Z</time>
      </trkpt>
      <trkpt lat="41.55325" lon="8.81765">
        <ele>15.037719726562</ele>
        <time>2015-06-19T09:29:33Z</time>
      </trkpt>
      <trkpt lat="41.55328" lon="8.81758">
        <ele>13.115112304688</ele>
        <time>2015-06-19T09:29:41Z</time>
      </trkpt>
      <trkpt lat="41.55335" lon="8.81753">
        <ele>13.595825195312</ele>
        <time>2015-06-19T09:29:48Z</time>
      </trkpt>
      <trkpt lat="41.55352" lon="8.81748">
        <ele>15.9990234375</ele>
        <time>2015-06-19T09:30:04Z</time>
      </trkpt>
      <trkpt lat="41.55353" lon="8.81747">
        <ele>15.518432617188</ele>
        <time>2015-06-19T09:30:05Z</time>
      </trkpt>
      <trkpt lat="41.55357" lon="8.81743">
        <ele>15.518432617188</ele>
        <time>2015-06-19T09:30:09Z</time>
      </trkpt>
      <trkpt lat="41.55365" lon="8.81728">
        <ele>14.557006835938</ele>
        <time>2015-06-19T09:30:24Z</time>
      </trkpt>
      <trkpt lat="41.55368" lon="8.81721">
        <ele>13.595825195312</ele>
        <time>2015-06-19T09:30:29Z</time>
      </trkpt>
      <trkpt lat="41.55371" lon="8.81718">
        <ele>14.076416015625</ele>
        <time>2015-06-19T09:30:32Z</time>
      </trkpt>
      <trkpt lat="41.55384" lon="8.81719">
        <ele>15.037719726562</ele>
        <time>2015-06-19T09:30:46Z</time>
      </trkpt>
      <trkpt lat="41.55384" lon="8.81719">
        <ele>15.037719726562</ele>
        <time>2015-06-19T09:30:47Z</time>
      </trkpt>
      <trkpt lat="41.55393" lon="8.81715">
        <ele>12.634399414062</ele>
        <time>2015-06-19T09:30:57Z</time>
      </trkpt>
      <trkpt lat="41.55402" lon="8.81708">
        <ele>12.15380859375</ele>
        <time>2015-06-19T09:31:07Z</time>
      </trkpt>
      <trkpt lat="41.55406" lon="8.81703">
        <ele>11.673217773438</ele>
        <time>2015-06-19T09:31:11Z</time>
      </trkpt>
      <trkpt lat="41.55426" lon="8.81695">
        <ele>11.673217773438</ele>
        <time>2015-06-19T09:31:29Z</time>
      </trkpt>
      <trkpt lat="41.55436" lon="8.81698">
        <ele>11.192504882812</ele>
        <time>2015-06-19T09:31:40Z</time>
      </trkpt>
      <trkpt lat="41.55457" lon="8.81706">
        <ele>10.231201171875</ele>
        <time>2015-06-19T09:31:57Z</time>
      </trkpt>
      <trkpt lat="41.5547" lon="8.8171">
        <ele>11.192504882812</ele>
        <time>2015-06-19T09:32:09Z</time>
      </trkpt>
      <trkpt lat="41.5548" lon="8.81723">
        <ele>13.115112304688</ele>
        <time>2015-06-19T09:32:25Z</time>
      </trkpt>
      <trkpt lat="41.55482" lon="8.81725">
        <ele>13.595825195312</ele>
        <time>2015-06-19T09:32:28Z</time>
      </trkpt>
      <trkpt lat="41.55503" lon="8.81739">
        <ele>15.9990234375</ele>
        <time>2015-06-19T09:32:48Z</time>
      </trkpt>
      <trkpt lat="41.55514" lon="8.81751">
        <ele>15.9990234375</ele>
        <time>2015-06-19T09:33:01Z</time>
      </trkpt>
      <trkpt lat="41.55523" lon="8.81761">
        <ele>15.518432617188</ele>
        <time>2015-06-19T09:33:13Z</time>
      </trkpt>
      <trkpt lat="41.55531" lon="8.81754">
        <ele>12.634399414062</ele>
        <time>2015-06-19T09:33:30Z</time>
      </trkpt>
      <trkpt lat="41.55534" lon="8.81746">
        <ele>10.711791992188</ele>
        <time>2015-06-19T09:33:43Z</time>
      </trkpt>
      <trkpt lat="41.55535" lon="8.81737">
        <ele>9.2698974609375</ele>
        <time>2015-06-19T09:33:58Z</time>
      </trkpt>
      <trkpt lat="41.55543" lon="8.81736">
        <ele>5.9052734375</ele>
        <time>2015-06-19T09:34:11Z</time>
      </trkpt>
      <trkpt lat="41.55552" lon="8.81733">
        <ele>4.4632568359375</ele>
        <time>2015-06-19T09:34:26Z</time>
      </trkpt>
      <trkpt lat="41.55555" lon="8.81725">
        <ele>2.5406494140625</ele>
        <time>2015-06-19T09:34:39Z</time>
      </trkpt>
      <trkpt lat="41.55557" lon="8.81714">
        <ele>-0.3433837890625</ele>
        <time>2015-06-19T09:34:55Z</time>
      </trkpt>
      <trkpt lat="41.55558" lon="8.81705">
        <ele>0.137451171875</ele>
        <time>2015-06-19T09:35:17Z</time>
      </trkpt>
      <trkpt lat="41.55558" lon="8.81704">
        <ele>0.137451171875</ele>
        <time>2015-06-19T09:35:18Z</time>
      </trkpt>
      <trkpt lat="41.55557" lon="8.81693">
        <ele>-0.8240966796875</ele>
        <time>2015-06-19T09:35:27Z</time>
      </trkpt>
      <trkpt lat="41.55558" lon="8.81677">
        <ele>-0.3433837890625</ele>
        <time>2015-06-19T09:35:47Z</time>
      </trkpt>
      <trkpt lat="41.55561" lon="8.81675">
        <ele>0.137451171875</ele>
        <time>2015-06-19T09:36:04Z</time>
      </trkpt>
      <trkpt lat="41.5556" lon="8.81668">
        <ele>2.5406494140625</ele>
        <time>2015-06-19T09:36:19Z</time>
      </trkpt>
      <trkpt lat="41.55559" lon="8.81666">
        <ele>2.06005859375</ele>
        <time>2015-06-19T09:36:30Z</time>
      </trkpt>
      <trkpt lat="41.55552" lon="8.81654">
        <ele>3.501953125</ele>
        <time>2015-06-19T09:36:44Z</time>
      </trkpt>
      <trkpt lat="41.5555" lon="8.81649">
        <ele>4.4632568359375</ele>
        <time>2015-06-19T09:36:50Z</time>
      </trkpt>
      <trkpt lat="41.5554" lon="8.81636">
        <ele>4.4632568359375</ele>
        <time>2015-06-19T09:37:03Z</time>
      </trkpt>
      <trkpt lat="41.55533" lon="8.81623">
        <ele>5.424560546875</ele>
        <time>2015-06-19T09:37:17Z</time>
      </trkpt>
      <trkpt lat="41.55527" lon="8.81611">
        <ele>6.866455078125</ele>
        <time>2015-06-19T09:37:30Z</time>
      </trkpt>
      <trkpt lat="41.55522" lon="8.81603">
        <ele>7.827880859375</ele>
        <time>2015-06-19T09:37:41Z</time>
      </trkpt>
      <trkpt lat="41.5551" lon="8.81587">
        <ele>8.30859375</ele>
        <time>2015-06-19T09:37:56Z</time>
      </trkpt>
      <trkpt lat="41.55505" lon="8.81588">
        <ele>8.7891845703125</ele>
        <time>2015-06-19T09:38:01Z</time>
      </trkpt>
      <trkpt lat="41.55493" lon="8.81587">
        <ele>7.827880859375</ele>
        <time>2015-06-19T09:38:16Z</time>
      </trkpt>
      <trkpt lat="41.55493" lon="8.81587">
        <ele>8.30859375</ele>
        <time>2015-06-19T09:38:19Z</time>
      </trkpt>
      <trkpt lat="41.55488" lon="8.81574">
        <ele>7.34716796875</ele>
        <time>2015-06-19T09:38:35Z</time>
      </trkpt>
      <trkpt lat="41.55488" lon="8.81572">
        <ele>7.34716796875</ele>
        <time>2015-06-19T09:39:42Z</time>
      </trkpt>
      <trkpt lat="41.55484" lon="8.81555">
        <ele>7.827880859375</ele>
        <time>2015-06-19T09:40:37Z</time>
      </trkpt>
      <trkpt lat="41.55473" lon="8.81535">
        <ele>8.7891845703125</ele>
        <time>2015-06-19T09:40:54Z</time>
      </trkpt>
      <trkpt lat="41.55472" lon="8.81533">
        <ele>9.7506103515625</ele>
        <time>2015-06-19T09:40:56Z</time>
      </trkpt>
      <trkpt lat="41.5547" lon="8.81531">
        <ele>9.2698974609375</ele>
        <time>2015-06-19T09:40:58Z</time>
      </trkpt>
      <trkpt lat="41.55458" lon="8.81504">
        <ele>10.231201171875</ele>
        <time>2015-06-19T09:41:18Z</time>
      </trkpt>
      <trkpt lat="41.55449" lon="8.81481">
        <ele>11.192504882812</ele>
        <time>2015-06-19T09:41:34Z</time>
      </trkpt>
      <trkpt lat="41.55448" lon="8.81476">
        <ele>11.192504882812</ele>
        <time>2015-06-19T09:41:37Z</time>
      </trkpt>
      <trkpt lat="41.55444" lon="8.81468">
        <ele>11.192504882812</ele>
        <time>2015-06-19T09:41:43Z</time>
      </trkpt>
      <trkpt lat="41.55439" lon="8.81435">
        <ele>11.673217773438</ele>
        <time>2015-06-19T09:42:02Z</time>
      </trkpt>
      <trkpt lat="41.55445" lon="8.81413">
        <ele>11.192504882812</ele>
        <time>2015-06-19T09:42:17Z</time>
      </trkpt>
      <trkpt lat="41.55449" lon="8.81393">
        <ele>11.192504882812</ele>
        <time>2015-06-19T09:42:29Z</time>
      </trkpt>
      <trkpt lat="41.55465" lon="8.81365">
        <ele>11.192504882812</ele>
        <time>2015-06-19T09:42:51Z</time>
      </trkpt>
      <trkpt lat="41.55477" lon="8.81343">
        <ele>9.7506103515625</ele>
        <time>2015-06-19T09:43:08Z</time>
      </trkpt>
      <trkpt lat="41.55491" lon="8.81319">
        <ele>9.7506103515625</ele>
        <time>2015-06-19T09:43:26Z</time>
      </trkpt>
      <trkpt lat="41.55495" lon="8.81305">
        <ele>9.7506103515625</ele>
        <time>2015-06-19T09:43:36Z</time>
      </trkpt>
      <trkpt lat="41.55504" lon="8.8129">
        <ele>10.231201171875</ele>
        <time>2015-06-19T09:43:49Z</time>
      </trkpt>
      <trkpt lat="41.55506" lon="8.81281">
        <ele>9.7506103515625</ele>
        <time>2015-06-19T09:43:55Z</time>
      </trkpt>
      <trkpt lat="41.55511" lon="8.81278">
        <ele>9.7506103515625</ele>
        <time>2015-06-19T09:43:59Z</time>
      </trkpt>
      <trkpt lat="41.55518" lon="8.81271">
        <ele>10.231201171875</ele>
        <time>2015-06-19T09:44:11Z</time>
      </trkpt>
      <trkpt lat="41.55522" lon="8.81269">
        <ele>10.231201171875</ele>
        <time>2015-06-19T09:44:15Z</time>
      </trkpt>
      <trkpt lat="41.55536" lon="8.81248">
        <ele>8.7891845703125</ele>
        <time>2015-06-19T09:44:32Z</time>
      </trkpt>
      <trkpt lat="41.55551" lon="8.81229">
        <ele>6.866455078125</ele>
        <time>2015-06-19T09:44:50Z</time>
      </trkpt>
      <trkpt lat="41.55552" lon="8.81222">
        <ele>6.866455078125</ele>
        <time>2015-06-19T09:44:54Z</time>
      </trkpt>
      <trkpt lat="41.55567" lon="8.81202">
        <ele>5.424560546875</ele>
        <time>2015-06-19T09:45:11Z</time>
      </trkpt>
      <trkpt lat="41.55581" lon="8.81173">
        <ele>3.982666015625</ele>
        <time>2015-06-19T09:45:31Z</time>
      </trkpt>
      <trkpt lat="41.55584" lon="8.8117">
        <ele>3.982666015625</ele>
        <time>2015-06-19T09:45:34Z</time>
      </trkpt>
      <trkpt lat="41.5559" lon="8.8114">
        <ele>3.501953125</ele>
        <time>2015-06-19T09:45:52Z</time>
      </trkpt>
      <trkpt lat="41.55592" lon="8.81113">
        <ele>2.5406494140625</ele>
        <time>2015-06-19T09:46:10Z</time>
      </trkpt>
      <trkpt lat="41.55594" lon="8.81101">
        <ele>2.5406494140625</ele>
        <time>2015-06-19T09:46:27Z</time>
      </trkpt>
      <trkpt lat="41.55602" lon="8.81088">
        <ele>2.5406494140625</ele>
        <time>2015-06-19T09:46:42Z</time>
      </trkpt>
      <trkpt lat="41.55605" lon="8.81075">
        <ele>2.06005859375</ele>
        <time>2015-06-19T09:46:59Z</time>
      </trkpt>
      <trkpt lat="41.55607" lon="8.8107">
        <ele>1.0986328125</ele>
        <time>2015-06-19T09:47:13Z</time>
      </trkpt>
      <trkpt lat="41.55609" lon="8.81059">
        <ele>0.137451171875</ele>
        <time>2015-06-19T09:47:27Z</time>
      </trkpt>
      <trkpt lat="41.55608" lon="8.81057">
        <ele>0.6180419921875</ele>
        <time>2015-06-19T09:47:30Z</time>
      </trkpt>
      <trkpt lat="41.55622" lon="8.81048">
        <ele>0.137451171875</ele>
        <time>2015-06-19T09:47:48Z</time>
      </trkpt>
      <trkpt lat="41.55638" lon="8.81031">
        <ele>-0.3433837890625</ele>
        <time>2015-06-19T09:48:10Z</time>
      </trkpt>
      <trkpt lat="41.55641" lon="8.8103">
        <ele>-0.3433837890625</ele>
        <time>2015-06-19T09:48:26Z</time>
      </trkpt>
      <trkpt lat="41.55652" lon="8.81027">
        <ele>-0.3433837890625</ele>
        <time>2015-06-19T09:48:45Z</time>
      </trkpt>
      <trkpt lat="41.5567" lon="8.81019">
        <ele>-0.3433837890625</ele>
        <time>2015-06-19T09:49:05Z</time>
      </trkpt>
      <trkpt lat="41.55679" lon="8.81009">
        <ele>-0.3433837890625</ele>
        <time>2015-06-19T09:49:19Z</time>
      </trkpt>
      <trkpt lat="41.55684" lon="8.81004">
        <ele>0.137451171875</ele>
        <time>2015-06-19T09:49:25Z</time>
      </trkpt>
      <trkpt lat="41.55697" lon="8.80988">
        <ele>0.137451171875</ele>
        <time>2015-06-19T09:49:41Z</time>
      </trkpt>
      <trkpt lat="41.55708" lon="8.80971">
        <ele>0.137451171875</ele>
        <time>2015-06-19T09:49:55Z</time>
      </trkpt>
      <trkpt lat="41.55709" lon="8.80965">
        <ele>0.137451171875</ele>
        <time>2015-06-19T09:50:00Z</time>
      </trkpt>
      <trkpt lat="41.55713" lon="8.80956">
        <ele>0.137451171875</ele>
        <time>2015-06-19T09:50:13Z</time>
      </trkpt>
      <trkpt lat="41.5572" lon="8.80948">
        <ele>1.0986328125</ele>
        <time>2015-06-19T09:50:22Z</time>
      </trkpt>
      <trkpt lat="41.55721" lon="8.80949">
        <ele>1.0986328125</ele>
        <time>2015-06-19T09:50:25Z</time>
      </trkpt>
      <trkpt lat="41.55723" lon="8.80953">
        <ele>1.0986328125</ele>
        <time>2015-06-19T09:50:45Z</time>
      </trkpt>
      <trkpt lat="41.5572" lon="8.80962">
        <ele>1.0986328125</ele>
        <time>2015-06-19T09:51:09Z</time>
      </trkpt>
      <trkpt lat="41.55723" lon="8.80961">
        <ele>1.579345703125</ele>
        <time>2015-06-19T09:51:14Z</time>
      </trkpt>
      <trkpt lat="41.55726" lon="8.80962">
        <ele>2.06005859375</ele>
        <time>2015-06-19T09:51:18Z</time>
      </trkpt>
      <trkpt lat="41.55735" lon="8.80951">
        <ele>3.982666015625</ele>
        <time>2015-06-19T09:51:35Z</time>
      </trkpt>
      <trkpt lat="41.55734" lon="8.80945">
        <ele>4.94384765625</ele>
        <time>2015-06-19T09:51:45Z</time>
      </trkpt>
      <trkpt lat="41.55727" lon="8.80938">
        <ele>5.9052734375</ele>
        <time>2015-06-19T09:51:55Z</time>
      </trkpt>
      <trkpt lat="41.5572" lon="8.80929">
        <ele>6.866455078125</ele>
        <time>2015-06-19T09:52:03Z</time>
      </trkpt>
      <trkpt lat="41.55704" lon="8.80903">
        <ele>8.30859375</ele>
        <time>2015-06-19T09:52:24Z</time>
      </trkpt>
      <trkpt lat="41.557" lon="8.80894">
        <ele>8.7891845703125</ele>
        <time>2015-06-19T09:52:33Z</time>
      </trkpt>
      <trkpt lat="41.5569" lon="8.80881">
        <ele>9.7506103515625</ele>
        <time>2015-06-19T09:52:49Z</time>
      </trkpt>
      <trkpt lat="41.55687" lon="8.80876">
        <ele>9.2698974609375</ele>
        <time>2015-06-19T09:53:01Z</time>
      </trkpt>
      <trkpt lat="41.55681" lon="8.80862">
        <ele>9.7506103515625</ele>
        <time>2015-06-19T09:53:17Z</time>
      </trkpt>
      <trkpt lat="41.55681" lon="8.80861">
        <ele>9.7506103515625</ele>
        <time>2015-06-19T09:53:18Z</time>
      </trkpt>
      <trkpt lat="41.5568" lon="8.80854">
        <ele>9.2698974609375</ele>
        <time>2015-06-19T09:53:22Z</time>
      </trkpt>
      <trkpt lat="41.55684" lon="8.80833">
        <ele>9.2698974609375</ele>
        <time>2015-06-19T09:53:38Z</time>
      </trkpt>
      <trkpt lat="41.55684" lon="8.80826">
        <ele>8.7891845703125</ele>
        <time>2015-06-19T09:53:43Z</time>
      </trkpt>
      <trkpt lat="41.55685" lon="8.80816">
        <ele>8.7891845703125</ele>
        <time>2015-06-19T09:53:49Z</time>
      </trkpt>
      <trkpt lat="41.55678" lon="8.80795">
        <ele>8.30859375</ele>
        <time>2015-06-19T09:54:02Z</time>
      </trkpt>
      <trkpt lat="41.55678" lon="8.80786">
        <ele>7.827880859375</ele>
        <time>2015-06-19T09:54:08Z</time>
      </trkpt>
      <trkpt lat="41.55667" lon="8.80763">
        <ele>7.34716796875</ele>
        <time>2015-06-19T09:54:24Z</time>
      </trkpt>
      <trkpt lat="41.5566" lon="8.80752">
        <ele>5.9052734375</ele>
        <time>2015-06-19T09:54:38Z</time>
      </trkpt>
      <trkpt lat="41.5566" lon="8.80732">
        <ele>6.3858642578125</ele>
        <time>2015-06-19T09:54:53Z</time>
      </trkpt>
      <trkpt lat="41.55667" lon="8.80716">
        <ele>6.3858642578125</ele>
        <time>2015-06-19T09:55:07Z</time>
      </trkpt>
      <trkpt lat="41.55669" lon="8.80703">
        <ele>7.827880859375</ele>
        <time>2015-06-19T09:55:21Z</time>
      </trkpt>
      <trkpt lat="41.55669" lon="8.80701">
        <ele>8.30859375</ele>
        <time>2015-06-19T09:55:22Z</time>
      </trkpt>
      <trkpt lat="41.5568" lon="8.80685">
        <ele>8.7891845703125</ele>
        <time>2015-06-19T09:55:37Z</time>
      </trkpt>
      <trkpt lat="41.55682" lon="8.80673">
        <ele>8.7891845703125</ele>
        <time>2015-06-19T09:55:44Z</time>
      </trkpt>
      <trkpt lat="41.55685" lon="8.80645">
        <ele>9.7506103515625</ele>
        <time>2015-06-19T09:56:02Z</time>
      </trkpt>
      <trkpt lat="41.55685" lon="8.80635">
        <ele>9.2698974609375</ele>
        <time>2015-06-19T09:56:08Z</time>
      </trkpt>
      <trkpt lat="41.55696" lon="8.80593">
        <ele>9.7506103515625</ele>
        <time>2015-06-19T09:56:33Z</time>
      </trkpt>
      <trkpt lat="41.55706" lon="8.80569">
        <ele>9.2698974609375</ele>
        <time>2015-06-19T09:56:50Z</time>
      </trkpt>
      <trkpt lat="41.55716" lon="8.80547">
        <ele>8.30859375</ele>
        <time>2015-06-19T09:57:05Z</time>
      </trkpt>
      <trkpt lat="41.5572" lon="8.80525">
        <ele>6.866455078125</ele>
        <time>2015-06-19T09:57:21Z</time>
      </trkpt>
      <trkpt lat="41.55725" lon="8.80509">
        <ele>7.34716796875</ele>
        <time>2015-06-19T09:57:32Z</time>
      </trkpt>
      <trkpt lat="41.5573" lon="8.80481">
        <ele>8.7891845703125</ele>
        <time>2015-06-19T09:57:50Z</time>
      </trkpt>
      <trkpt lat="41.55739" lon="8.80455">
        <ele>10.711791992188</ele>
        <time>2015-06-19T09:58:07Z</time>
      </trkpt>
      <trkpt lat="41.5574" lon="8.80444">
        <ele>9.7506103515625</ele>
        <time>2015-06-19T09:58:13Z</time>
      </trkpt>
      <trkpt lat="41.5575" lon="8.80416">
        <ele>10.231201171875</ele>
        <time>2015-06-19T09:58:30Z</time>
      </trkpt>
      <trkpt lat="41.55757" lon="8.80387">
        <ele>8.7891845703125</ele>
        <time>2015-06-19T09:58:48Z</time>
      </trkpt>
      <trkpt lat="41.55752" lon="8.80358">
        <ele>8.7891845703125</ele>
        <time>2015-06-19T09:59:04Z</time>
      </trkpt>
      <trkpt lat="41.5576" lon="8.80333">
        <ele>8.7891845703125</ele>
        <time>2015-06-19T09:59:19Z</time>
      </trkpt>
      <trkpt lat="41.55759" lon="8.80327">
        <ele>8.7891845703125</ele>
        <time>2015-06-19T09:59:23Z</time>
      </trkpt>
      <trkpt lat="41.55759" lon="8.80298">
        <ele>7.827880859375</ele>
        <time>2015-06-19T09:59:41Z</time>
      </trkpt>
      <trkpt lat="41.55759" lon="8.80291">
        <ele>6.3858642578125</ele>
        <time>2015-06-19T09:59:46Z</time>
      </trkpt>
      <trkpt lat="41.55759" lon="8.80283">
        <ele>6.3858642578125</ele>
        <time>2015-06-19T09:59:51Z</time>
      </trkpt>
      <trkpt lat="41.5576" lon="8.80278">
        <ele>6.3858642578125</ele>
        <time>2015-06-19T09:59:55Z</time>
      </trkpt>
      <trkpt lat="41.55758" lon="8.80268">
        <ele>5.9052734375</ele>
        <time>2015-06-19T10:00:01Z</time>
      </trkpt>
      <trkpt lat="41.55759" lon="8.80265">
        <ele>5.424560546875</ele>
        <time>2015-06-19T10:00:03Z</time>
      </trkpt>
      <trkpt lat="41.55762" lon="8.80255">
        <ele>5.424560546875</ele>
        <time>2015-06-19T10:00:11Z</time>
      </trkpt>
      <trkpt lat="41.55767" lon="8.80242">
        <ele>5.9052734375</ele>
        <time>2015-06-19T10:00:20Z</time>
      </trkpt>
      <trkpt lat="41.55775" lon="8.80218">
        <ele>5.424560546875</ele>
        <time>2015-06-19T10:00:35Z</time>
      </trkpt>
      <trkpt lat="41.5578" lon="8.80195">
        <ele>6.3858642578125</ele>
        <time>2015-06-19T10:00:51Z</time>
      </trkpt>
      <trkpt lat="41.55783" lon="8.8019">
        <ele>7.34716796875</ele>
        <time>2015-06-19T10:00:55Z</time>
      </trkpt>
      <trkpt lat="41.5579" lon="8.8018">
        <ele>8.30859375</ele>
        <time>2015-06-19T10:01:05Z</time>
      </trkpt>
      <trkpt lat="41.55798" lon="8.80162">
        <ele>9.2698974609375</ele>
        <time>2015-06-19T10:01:21Z</time>
      </trkpt>
      <trkpt lat="41.5581" lon="8.80144">
        <ele>10.231201171875</ele>
        <time>2015-06-19T10:01:38Z</time>
      </trkpt>
      <trkpt lat="41.55812" lon="8.8014">
        <ele>9.7506103515625</ele>
        <time>2015-06-19T10:01:41Z</time>
      </trkpt>
      <trkpt lat="41.55827" lon="8.80111">
        <ele>10.711791992188</ele>
        <time>2015-06-19T10:02:00Z</time>
      </trkpt>
      <trkpt lat="41.55829" lon="8.80108">
        <ele>10.711791992188</ele>
        <time>2015-06-19T10:02:02Z</time>
      </trkpt>
      <trkpt lat="41.55833" lon="8.80108">
        <ele>10.231201171875</ele>
        <time>2015-06-19T10:02:06Z</time>
      </trkpt>
      <trkpt lat="41.55839" lon="8.80109">
        <ele>10.231201171875</ele>
        <time>2015-06-19T10:02:11Z</time>
      </trkpt>
      <trkpt lat="41.55859" lon="8.80098">
        <ele>10.711791992188</ele>
        <time>2015-06-19T10:02:30Z</time>
      </trkpt>
      <trkpt lat="41.55866" lon="8.80088">
        <ele>10.711791992188</ele>
        <time>2015-06-19T10:02:46Z</time>
      </trkpt>
      <trkpt lat="41.55865" lon="8.80083">
        <ele>10.711791992188</ele>
        <time>2015-06-19T10:02:51Z</time>
      </trkpt>
      <trkpt lat="41.55864" lon="8.80076">
        <ele>10.711791992188</ele>
        <time>2015-06-19T10:02:56Z</time>
      </trkpt>
      <trkpt lat="41.55851" lon="8.80055">
        <ele>10.231201171875</ele>
        <time>2015-06-19T10:03:13Z</time>
      </trkpt>
      <trkpt lat="41.55843" lon="8.80024">
        <ele>10.711791992188</ele>
        <time>2015-06-19T10:03:31Z</time>
      </trkpt>
      <trkpt lat="41.55836" lon="8.79994">
        <ele>10.711791992188</ele>
        <time>2015-06-19T10:03:49Z</time>
      </trkpt>
      <trkpt lat="41.55832" lon="8.79975">
        <ele>10.711791992188</ele>
        <time>2015-06-19T10:04:07Z</time>
      </trkpt>
      <trkpt lat="41.55827" lon="8.79945">
        <ele>8.7891845703125</ele>
        <time>2015-06-19T10:04:25Z</time>
      </trkpt>
      <trkpt lat="41.55825" lon="8.79936">
        <ele>8.7891845703125</ele>
        <time>2015-06-19T10:04:30Z</time>
      </trkpt>
      <trkpt lat="41.55822" lon="8.7992">
        <ele>8.7891845703125</ele>
        <time>2015-06-19T10:04:40Z</time>
      </trkpt>
      <trkpt lat="41.55816" lon="8.79885">
        <ele>8.30859375</ele>
        <time>2015-06-19T10:05:00Z</time>
      </trkpt>
      <trkpt lat="41.55814" lon="8.79859">
        <ele>8.7891845703125</ele>
        <time>2015-06-19T10:05:16Z</time>
      </trkpt>
      <trkpt lat="41.55813" lon="8.79843">
        <ele>8.7891845703125</ele>
        <time>2015-06-19T10:05:25Z</time>
      </trkpt>
      <trkpt lat="41.55814" lon="8.79839">
        <ele>9.2698974609375</ele>
        <time>2015-06-19T10:05:28Z</time>
      </trkpt>
      <trkpt lat="41.55814" lon="8.79823">
        <ele>10.231201171875</ele>
        <time>2015-06-19T10:05:43Z</time>
      </trkpt>
      <trkpt lat="41.55825" lon="8.79811">
        <ele>10.711791992188</ele>
        <time>2015-06-19T10:05:57Z</time>
      </trkpt>
      <trkpt lat="41.5583" lon="8.79799">
        <ele>11.673217773438</ele>
        <time>2015-06-19T10:06:08Z</time>
      </trkpt>
      <trkpt lat="41.55831" lon="8.79795">
        <ele>11.673217773438</ele>
        <time>2015-06-19T10:06:11Z</time>
      </trkpt>
      <trkpt lat="41.55843" lon="8.79767">
        <ele>13.115112304688</ele>
        <time>2015-06-19T10:06:31Z</time>
      </trkpt>
      <trkpt lat="41.55851" lon="8.79744">
        <ele>14.557006835938</ele>
        <time>2015-06-19T10:06:47Z</time>
      </trkpt>
      <trkpt lat="41.55858" lon="8.79734">
        <ele>15.037719726562</ele>
        <time>2015-06-19T10:06:56Z</time>
      </trkpt>
      <trkpt lat="41.55864" lon="8.7971">
        <ele>16.479736328125</ele>
        <time>2015-06-19T10:07:12Z</time>
      </trkpt>
      <trkpt lat="41.55869" lon="8.79694">
        <ele>16.96044921875</ele>
        <time>2015-06-19T10:07:23Z</time>
      </trkpt>
      <trkpt lat="41.55875" lon="8.79673">
        <ele>19.844360351562</ele>
        <time>2015-06-19T10:07:40Z</time>
      </trkpt>
      <trkpt lat="41.55881" lon="8.79661">
        <ele>21.766967773438</ele>
        <time>2015-06-19T10:07:56Z</time>
      </trkpt>
      <trkpt lat="41.55887" lon="8.79654">
        <ele>24.651000976562</ele>
        <time>2015-06-19T10:08:11Z</time>
      </trkpt>
      <trkpt lat="41.55887" lon="8.7965">
        <ele>24.651000976562</ele>
        <time>2015-06-19T10:08:25Z</time>
      </trkpt>
      <trkpt lat="41.55888" lon="8.79635">
        <ele>25.6123046875</ele>
        <time>2015-06-19T10:08:38Z</time>
      </trkpt>
      <trkpt lat="41.55888" lon="8.79634">
        <ele>25.131713867188</ele>
        <time>2015-06-19T10:08:39Z</time>
      </trkpt>
      <trkpt lat="41.55887" lon="8.7963">
        <ele>25.6123046875</ele>
        <time>2015-06-19T10:08:42Z</time>
      </trkpt>
      <trkpt lat="41.55884" lon="8.79595">
        <ele>27.054321289062</ele>
        <time>2015-06-19T10:09:04Z</time>
      </trkpt>
      <trkpt lat="41.55876" lon="8.79565">
        <ele>27.534912109375</ele>
        <time>2015-06-19T10:09:23Z</time>
      </trkpt>
      <trkpt lat="41.55864" lon="8.79532">
        <ele>28.976928710938</ele>
        <time>2015-06-19T10:09:45Z</time>
      </trkpt>
      <trkpt lat="41.55859" lon="8.795">
        <ele>30.899536132812</ele>
        <time>2015-06-19T10:10:04Z</time>
      </trkpt>
      <trkpt lat="41.55859" lon="8.79477">
        <ele>31.860717773438</ele>
        <time>2015-06-19T10:10:22Z</time>
      </trkpt>
      <trkpt lat="41.55861" lon="8.79465">
        <ele>32.822265625</ele>
        <time>2015-06-19T10:10:38Z</time>
      </trkpt>
      <trkpt lat="41.55859" lon="8.79453">
        <ele>33.302856445312</ele>
        <time>2015-06-19T10:10:56Z</time>
      </trkpt>
      <trkpt lat="41.55857" lon="8.7945">
        <ele>33.783447265625</ele>
        <time>2015-06-19T10:11:12Z</time>
      </trkpt>
      <trkpt lat="41.5586" lon="8.79453">
        <ele>33.783447265625</ele>
        <time>2015-06-19T10:11:19Z</time>
      </trkpt>
      <trkpt lat="41.55861" lon="8.79458">
        <ele>33.783447265625</ele>
        <time>2015-06-19T10:11:33Z</time>
      </trkpt>
      <trkpt lat="41.5586" lon="8.79462">
        <ele>32.822265625</ele>
        <time>2015-06-19T10:11:37Z</time>
      </trkpt>
      <trkpt lat="41.55858" lon="8.79475">
        <ele>31.860717773438</ele>
        <time>2015-06-19T10:11:50Z</time>
      </trkpt>
      <trkpt lat="41.55859" lon="8.79489">
        <ele>30.418823242188</ele>
        <time>2015-06-19T10:12:10Z</time>
      </trkpt>
      <trkpt lat="41.55864" lon="8.79522">
        <ele>29.938110351562</ele>
        <time>2015-06-19T10:12:30Z</time>
      </trkpt>
      <trkpt lat="41.55874" lon="8.79549">
        <ele>28.496215820312</ele>
        <time>2015-06-19T10:12:48Z</time>
      </trkpt>
      <trkpt lat="41.55883" lon="8.79577">
        <ele>28.015502929688</ele>
        <time>2015-06-19T10:13:06Z</time>
      </trkpt>
      <trkpt lat="41.55889" lon="8.79609">
        <ele>27.054321289062</ele>
        <time>2015-06-19T10:13:26Z</time>
      </trkpt>
      <trkpt lat="41.55889" lon="8.79621">
        <ele>26.573608398438</ele>
        <time>2015-06-19T10:13:34Z</time>
      </trkpt>
      <trkpt lat="41.55893" lon="8.79632">
        <ele>26.092895507812</ele>
        <time>2015-06-19T10:13:43Z</time>
      </trkpt>
      <trkpt lat="41.55894" lon="8.79642">
        <ele>26.092895507812</ele>
        <time>2015-06-19T10:14:01Z</time>
      </trkpt>
      <trkpt lat="41.55894" lon="8.79645">
        <ele>26.092895507812</ele>
        <time>2015-06-19T10:14:21Z</time>
      </trkpt>
      <trkpt lat="41.55897" lon="8.7965">
        <ele>27.054321289062</ele>
        <time>2015-06-19T10:14:42Z</time>
      </trkpt>
      <trkpt lat="41.55908" lon="8.79655">
        <ele>28.976928710938</ele>
        <time>2015-06-19T10:14:57Z</time>
      </trkpt>
      <trkpt lat="41.55915" lon="8.79654">
        <ele>30.899536132812</ele>
        <time>2015-06-19T10:15:06Z</time>
      </trkpt>
      <trkpt lat="41.55921" lon="8.79651">
        <ele>31.860717773438</ele>
        <time>2015-06-19T10:15:19Z</time>
      </trkpt>
      <trkpt lat="41.55926" lon="8.79637">
        <ele>34.26416015625</ele>
        <time>2015-06-19T10:15:34Z</time>
      </trkpt>
      <trkpt lat="41.55934" lon="8.79636">
        <ele>37.148071289062</ele>
        <time>2015-06-19T10:15:47Z</time>
      </trkpt>
      <trkpt lat="41.55937" lon="8.79633">
        <ele>37.628662109375</ele>
        <time>2015-06-19T10:15:59Z</time>
      </trkpt>
      <trkpt lat="41.55945" lon="8.79632">
        <ele>40.512817382812</ele>
        <time>2015-06-19T10:16:12Z</time>
      </trkpt>
      <trkpt lat="41.55951" lon="8.7963">
        <ele>42.435424804688</ele>
        <time>2015-06-19T10:16:25Z</time>
      </trkpt>
      <trkpt lat="41.55957" lon="8.79635">
        <ele>43.396606445312</ele>
        <time>2015-06-19T10:16:42Z</time>
      </trkpt>
      <trkpt lat="41.55969" lon="8.79638">
        <ele>45.799926757812</ele>
        <time>2015-06-19T10:16:54Z</time>
      </trkpt>
      <trkpt lat="41.55978" lon="8.79641">
        <ele>47.241821289062</ele>
        <time>2015-06-19T10:17:06Z</time>
      </trkpt>
      <trkpt lat="41.55982" lon="8.79639">
        <ele>49.645263671875</ele>
        <time>2015-06-19T10:17:18Z</time>
      </trkpt>
      <trkpt lat="41.55991" lon="8.79644">
        <ele>50.1259765625</ele>
        <time>2015-06-19T10:17:32Z</time>
      </trkpt>
      <trkpt lat="41.55997" lon="8.79642">
        <ele>53.490478515625</ele>
        <time>2015-06-19T10:17:44Z</time>
      </trkpt>
      <trkpt lat="41.56004" lon="8.79645">
        <ele>55.893798828125</ele>
        <time>2015-06-19T10:17:59Z</time>
      </trkpt>
      <trkpt lat="41.56012" lon="8.79649">
        <ele>58.777709960938</ele>
        <time>2015-06-19T10:18:14Z</time>
      </trkpt>
      <trkpt lat="41.56018" lon="8.79658">
        <ele>59.739135742188</ele>
        <time>2015-06-19T10:18:29Z</time>
      </trkpt>
      <trkpt lat="41.56023" lon="8.79656">
        <ele>62.622924804688</ele>
        <time>2015-06-19T10:18:43Z</time>
      </trkpt>
      <trkpt lat="41.56024" lon="8.79642">
        <ele>64.545654296875</ele>
        <time>2015-06-19T10:18:58Z</time>
      </trkpt>
      <trkpt lat="41.5603" lon="8.79635">
        <ele>67.4296875</ele>
        <time>2015-06-19T10:19:12Z</time>
      </trkpt>
      <trkpt lat="41.56037" lon="8.79637">
        <ele>69.352294921875</ele>
        <time>2015-06-19T10:19:27Z</time>
      </trkpt>
      <trkpt lat="41.56046" lon="8.79644">
        <ele>71.755493164062</ele>
        <time>2015-06-19T10:19:42Z</time>
      </trkpt>
      <trkpt lat="41.56056" lon="8.79649">
        <ele>73.67822265625</ele>
        <time>2015-06-19T10:19:59Z</time>
      </trkpt>
      <trkpt lat="41.5606" lon="8.79654">
        <ele>74.639526367188</ele>
        <time>2015-06-19T10:20:17Z</time>
      </trkpt>
      <trkpt lat="41.56065" lon="8.7966">
        <ele>76.081420898438</ele>
        <time>2015-06-19T10:20:26Z</time>
      </trkpt>
      <trkpt lat="41.56076" lon="8.79673">
        <ele>78.004028320312</ele>
        <time>2015-06-19T10:20:41Z</time>
      </trkpt>
      <trkpt lat="41.5608" lon="8.79676">
        <ele>78.965454101562</ele>
        <time>2015-06-19T10:20:45Z</time>
      </trkpt>
      <trkpt lat="41.56081" lon="8.79679">
        <ele>80.88818359375</ele>
        <time>2015-06-19T10:20:48Z</time>
      </trkpt>
      <trkpt lat="41.5609" lon="8.79696">
        <ele>82.330078125</ele>
        <time>2015-06-19T10:21:03Z</time>
      </trkpt>
      <trkpt lat="41.5609" lon="8.79697">
        <ele>83.77197265625</ele>
        <time>2015-06-19T10:21:05Z</time>
      </trkpt>
      <trkpt lat="41.56098" lon="8.797">
        <ele>85.213989257812</ele>
        <time>2015-06-19T10:21:20Z</time>
      </trkpt>
      <trkpt lat="41.561" lon="8.79702">
        <ele>85.213989257812</ele>
        <time>2015-06-19T10:21:25Z</time>
      </trkpt>
      <trkpt lat="41.56105" lon="8.7971">
        <ele>84.7333984375</ele>
        <time>2015-06-19T10:21:33Z</time>
      </trkpt>
      <trkpt lat="41.56123" lon="8.79719">
        <ele>85.694580078125</ele>
        <time>2015-06-19T10:21:53Z</time>
      </trkpt>
      <trkpt lat="41.56131" lon="8.79721">
        <ele>84.7333984375</ele>
        <time>2015-06-19T10:22:07Z</time>
      </trkpt>
      <trkpt lat="41.56137" lon="8.79721">
        <ele>84.252685546875</ele>
        <time>2015-06-19T10:22:15Z</time>
      </trkpt>
      <trkpt lat="41.56154" lon="8.79725">
        <ele>82.330078125</ele>
        <time>2015-06-19T10:22:32Z</time>
      </trkpt>
      <trkpt lat="41.56155" lon="8.79725">
        <ele>82.330078125</ele>
        <time>2015-06-19T10:22:33Z</time>
      </trkpt>
      <trkpt lat="41.56175" lon="8.79736">
        <ele>82.330078125</ele>
        <time>2015-06-19T10:22:51Z</time>
      </trkpt>
      <trkpt lat="41.56182" lon="8.79746">
        <ele>83.291381835938</ele>
        <time>2015-06-19T10:23:00Z</time>
      </trkpt>
      <trkpt lat="41.56186" lon="8.79752">
        <ele>83.77197265625</ele>
        <time>2015-06-19T10:23:05Z</time>
      </trkpt>
      <trkpt lat="41.56192" lon="8.79757">
        <ele>83.77197265625</ele>
        <time>2015-06-19T10:23:12Z</time>
      </trkpt>
      <trkpt lat="41.56199" lon="8.79765">
        <ele>83.77197265625</ele>
        <time>2015-06-19T10:23:18Z</time>
      </trkpt>
      <trkpt lat="41.5621" lon="8.7978">
        <ele>83.77197265625</ele>
        <time>2015-06-19T10:23:30Z</time>
      </trkpt>
      <trkpt lat="41.56232" lon="8.79805">
        <ele>84.252685546875</ele>
        <time>2015-06-19T10:23:52Z</time>
      </trkpt>
      <trkpt lat="41.56252" lon="8.79832">
        <ele>83.77197265625</ele>
        <time>2015-06-19T10:24:12Z</time>
      </trkpt>
      <trkpt lat="41.56254" lon="8.79834">
        <ele>84.252685546875</ele>
        <time>2015-06-19T10:24:14Z</time>
      </trkpt>
      <trkpt lat="41.56265" lon="8.79848">
        <ele>84.7333984375</ele>
        <time>2015-06-19T10:24:26Z</time>
      </trkpt>
      <trkpt lat="41.56277" lon="8.7986">
        <ele>88.098022460938</ele>
        <time>2015-06-19T10:24:40Z</time>
      </trkpt>
      <trkpt lat="41.56291" lon="8.79868">
        <ele>88.098022460938</ele>
        <time>2015-06-19T10:24:55Z</time>
      </trkpt>
      <trkpt lat="41.5631" lon="8.79881">
        <ele>89.539916992188</ele>
        <time>2015-06-19T10:25:14Z</time>
      </trkpt>
      <trkpt lat="41.56312" lon="8.79882">
        <ele>89.539916992188</ele>
        <time>2015-06-19T10:25:16Z</time>
      </trkpt>
      <trkpt lat="41.56315" lon="8.79888">
        <ele>90.501342773438</ele>
        <time>2015-06-19T10:25:21Z</time>
      </trkpt>
      <trkpt lat="41.56327" lon="8.79899">
        <ele>92.904541015625</ele>
        <time>2015-06-19T10:25:38Z</time>
      </trkpt>
      <trkpt lat="41.56333" lon="8.79903">
        <ele>92.904541015625</ele>
        <time>2015-06-19T10:25:44Z</time>
      </trkpt>
      <trkpt lat="41.56343" lon="8.79906">
        <ele>94.346557617188</ele>
        <time>2015-06-19T10:25:55Z</time>
      </trkpt>
      <trkpt lat="41.56357" lon="8.79909">
        <ele>96.749877929688</ele>
        <time>2015-06-19T10:26:10Z</time>
      </trkpt>
      <trkpt lat="41.56367" lon="8.79916">
        <ele>99.6337890625</ele>
        <time>2015-06-19T10:26:26Z</time>
      </trkpt>
      <trkpt lat="41.56373" lon="8.79922">
        <ele>101.55639648438</ele>
        <time>2015-06-19T10:26:37Z</time>
      </trkpt>
      <trkpt lat="41.56387" lon="8.79938">
        <ele>103.95971679688</ele>
        <time>2015-06-19T10:26:57Z</time>
      </trkpt>
      <trkpt lat="41.56395" lon="8.79946">
        <ele>105.40173339844</ele>
        <time>2015-06-19T10:27:13Z</time>
      </trkpt>
      <trkpt lat="41.56404" lon="8.79953">
        <ele>108.76623535156</ele>
        <time>2015-06-19T10:27:29Z</time>
      </trkpt>
      <trkpt lat="41.5641" lon="8.79946">
        <ele>111.65026855469</ele>
        <time>2015-06-19T10:27:47Z</time>
      </trkpt>
      <trkpt lat="41.56414" lon="8.79933">
        <ele>113.09228515625</ele>
        <time>2015-06-19T10:28:03Z</time>
      </trkpt>
      <trkpt lat="41.56423" lon="8.79926">
        <ele>115.49560546875</ele>
        <time>2015-06-19T10:28:18Z</time>
      </trkpt>
      <trkpt lat="41.56426" lon="8.79918">
        <ele>116.9375</ele>
        <time>2015-06-19T10:28:31Z</time>
      </trkpt>
      <trkpt lat="41.56428" lon="8.7991">
        <ele>117.89880371094</ele>
        <time>2015-06-19T10:28:44Z</time>
      </trkpt>
      <trkpt lat="41.56428" lon="8.79906">
        <ele>118.37939453125</ele>
        <time>2015-06-19T10:28:53Z</time>
      </trkpt>
      <trkpt lat="41.56432" lon="8.799">
        <ele>120.78283691406</ele>
        <time>2015-06-19T10:29:03Z</time>
      </trkpt>
      <trkpt lat="41.56427" lon="8.79899">
        <ele>122.22473144531</ele>
        <time>2015-06-19T10:29:18Z</time>
      </trkpt>
      <trkpt lat="41.56429" lon="8.79887">
        <ele>125.58935546875</ele>
        <time>2015-06-19T10:29:37Z</time>
      </trkpt>
      <trkpt lat="41.56432" lon="8.79878">
        <ele>127.03137207031</ele>
        <time>2015-06-19T10:29:51Z</time>
      </trkpt>
      <trkpt lat="41.56434" lon="8.79873">
        <ele>128.9541015625</ele>
        <time>2015-06-19T10:30:08Z</time>
      </trkpt>
      <trkpt lat="41.56434" lon="8.7987">
        <ele>127.03137207031</ele>
        <time>2015-06-19T10:30:33Z</time>
      </trkpt>
      <trkpt lat="41.56432" lon="8.79866">
        <ele>127.03137207031</ele>
        <time>2015-06-19T10:30:48Z</time>
      </trkpt>
      <trkpt lat="41.56434" lon="8.79864">
        <ele>126.06994628906</ele>
        <time>2015-06-19T10:31:27Z</time>
      </trkpt>
      <trkpt lat="41.56441" lon="8.79868">
        <ele>126.55065917969</ele>
        <time>2015-06-19T10:32:18Z</time>
      </trkpt>
      <trkpt lat="41.56432" lon="8.79867">
        <ele>125.58935546875</ele>
        <time>2015-06-19T10:33:07Z</time>
      </trkpt>
      <trkpt lat="41.56434" lon="8.79865">
        <ele>125.58935546875</ele>
        <time>2015-06-19T10:33:50Z</time>
      </trkpt>
      <trkpt lat="41.56434" lon="8.79865">
        <ele>126.55065917969</ele>
        <time>2015-06-19T10:35:46Z</time>
      </trkpt>
      <trkpt lat="41.56434" lon="8.79872">
        <ele>127.99255371094</ele>
        <time>2015-06-19T10:36:01Z</time>
      </trkpt>
      <trkpt lat="41.56434" lon="8.79872">
        <ele>127.03137207031</ele>
        <time>2015-06-19T10:36:20Z</time>
      </trkpt>
      <trkpt lat="41.56437" lon="8.79875">
        <ele>127.51196289062</ele>
        <time>2015-06-19T10:39:52Z</time>
      </trkpt>
      <trkpt lat="41.56433" lon="8.79872">
        <ele>128.47338867188</ele>
        <time>2015-06-19T10:41:38Z</time>
      </trkpt>
      <trkpt lat="41.56434" lon="8.79871">
        <ele>127.99255371094</ele>
        <time>2015-06-19T10:42:13Z</time>
      </trkpt>
      <trkpt lat="41.56432" lon="8.79872">
        <ele>126.55065917969</ele>
        <time>2015-06-19T10:44:34Z</time>
      </trkpt>
      <trkpt lat="41.56433" lon="8.79873">
        <ele>126.55065917969</ele>
        <time>2015-06-19T10:48:03Z</time>
      </trkpt>
      <trkpt lat="41.56434" lon="8.79873">
        <ele>127.03137207031</ele>
        <time>2015-06-19T10:48:39Z</time>
      </trkpt>
      <trkpt lat="41.56434" lon="8.79873">
        <ele>127.03137207031</ele>
        <time>2015-06-19T10:49:47Z</time>
      </trkpt>
      <trkpt lat="41.56434" lon="8.79872">
        <ele>127.51196289062</ele>
        <time>2015-06-19T10:51:13Z</time>
      </trkpt>
      <trkpt lat="41.56434" lon="8.79872">
        <ele>127.99255371094</ele>
        <time>2015-06-19T10:51:48Z</time>
      </trkpt>
      <trkpt lat="41.56434" lon="8.79873">
        <ele>127.51196289062</ele>
        <time>2015-06-19T10:52:35Z</time>
      </trkpt>
      <trkpt lat="41.56434" lon="8.79873">
        <ele>126.55065917969</ele>
        <time>2015-06-19T10:53:09Z</time>
      </trkpt>
      <trkpt lat="41.56437" lon="8.7987">
        <ele>127.99255371094</ele>
        <time>2015-06-19T11:00:45Z</time>
      </trkpt>
      <trkpt lat="41.56435" lon="8.79871">
        <ele>129.43469238281</ele>
        <time>2015-06-19T11:02:47Z</time>
      </trkpt>
      <trkpt lat="41.56435" lon="8.79881">
        <ele>128.9541015625</ele>
        <time>2015-06-19T11:03:04Z</time>
      </trkpt>
      <trkpt lat="41.56433" lon="8.79889">
        <ele>127.99255371094</ele>
        <time>2015-06-19T11:03:20Z</time>
      </trkpt>
      <trkpt lat="41.56433" lon="8.79894">
        <ele>126.55065917969</ele>
        <time>2015-06-19T11:03:36Z</time>
      </trkpt>
      <trkpt lat="41.56431" lon="8.79899">
        <ele>124.62805175781</ele>
        <time>2015-06-19T11:03:54Z</time>
      </trkpt>
      <trkpt lat="41.56431" lon="8.79902">
        <ele>123.66674804688</ele>
        <time>2015-06-19T11:04:19Z</time>
      </trkpt>
      <trkpt lat="41.5643" lon="8.79907">
        <ele>121.744140625</ele>
        <time>2015-06-19T11:04:34Z</time>
      </trkpt>
      <trkpt lat="41.56427" lon="8.7992">
        <ele>120.78283691406</ele>
        <time>2015-06-19T11:04:54Z</time>
      </trkpt>
      <trkpt lat="41.56423" lon="8.79924">
        <ele>120.30212402344</ele>
        <time>2015-06-19T11:05:08Z</time>
      </trkpt>
      <trkpt lat="41.56416" lon="8.79928">
        <ele>116.9375</ele>
        <time>2015-06-19T11:05:20Z</time>
      </trkpt>
      <trkpt lat="41.56416" lon="8.79929">
        <ele>116.9375</ele>
        <time>2015-06-19T11:05:21Z</time>
      </trkpt>
      <trkpt lat="41.56413" lon="8.79944">
        <ele>115.49560546875</ele>
        <time>2015-06-19T11:05:39Z</time>
      </trkpt>
      <trkpt lat="41.56409" lon="8.79954">
        <ele>113.09228515625</ele>
        <time>2015-06-19T11:05:59Z</time>
      </trkpt>
      <trkpt lat="41.56401" lon="8.7995">
        <ele>111.16955566406</ele>
        <time>2015-06-19T11:06:14Z</time>
      </trkpt>
      <trkpt lat="41.56392" lon="8.79942">
        <ele>109.24694824219</ele>
        <time>2015-06-19T11:06:31Z</time>
      </trkpt>
      <trkpt lat="41.56383" lon="8.79931">
        <ele>106.84362792969</ele>
        <time>2015-06-19T11:06:51Z</time>
      </trkpt>
      <trkpt lat="41.56374" lon="8.79922">
        <ele>103.47900390625</ele>
        <time>2015-06-19T11:07:10Z</time>
      </trkpt>
      <trkpt lat="41.56364" lon="8.79914">
        <ele>101.07568359375</ele>
        <time>2015-06-19T11:07:31Z</time>
      </trkpt>
      <trkpt lat="41.56355" lon="8.79908">
        <ele>99.6337890625</ele>
        <time>2015-06-19T11:07:50Z</time>
      </trkpt>
      <trkpt lat="41.56347" lon="8.79906">
        <ele>98.672485351562</ele>
        <time>2015-06-19T11:08:05Z</time>
      </trkpt>
      <trkpt lat="41.56335" lon="8.79905">
        <ele>97.23046875</ele>
        <time>2015-06-19T11:08:21Z</time>
      </trkpt>
      <trkpt lat="41.56329" lon="8.79901">
        <ele>96.269287109375</ele>
        <time>2015-06-19T11:08:29Z</time>
      </trkpt>
      <trkpt lat="41.56316" lon="8.79888">
        <ele>93.385131835938</ele>
        <time>2015-06-19T11:08:46Z</time>
      </trkpt>
      <trkpt lat="41.56304" lon="8.79877">
        <ele>91.943237304688</ele>
        <time>2015-06-19T11:09:02Z</time>
      </trkpt>
      <trkpt lat="41.56297" lon="8.7987">
        <ele>91.943237304688</ele>
        <time>2015-06-19T11:09:11Z</time>
      </trkpt>
      <trkpt lat="41.5628" lon="8.79864">
        <ele>90.020629882812</ele>
        <time>2015-06-19T11:09:30Z</time>
      </trkpt>
      <trkpt lat="41.56268" lon="8.79855">
        <ele>90.020629882812</ele>
        <time>2015-06-19T11:09:45Z</time>
      </trkpt>
      <trkpt lat="41.56258" lon="8.79841">
        <ele>88.578735351562</ele>
        <time>2015-06-19T11:10:01Z</time>
      </trkpt>
      <trkpt lat="41.56256" lon="8.79839">
        <ele>89.059326171875</ele>
        <time>2015-06-19T11:10:03Z</time>
      </trkpt>
      <trkpt lat="41.56238" lon="8.79814">
        <ele>87.6171875</ele>
        <time>2015-06-19T11:10:26Z</time>
      </trkpt>
      <trkpt lat="41.56222" lon="8.79791">
        <ele>88.098022460938</ele>
        <time>2015-06-19T11:10:45Z</time>
      </trkpt>
      <trkpt lat="41.56204" lon="8.79766">
        <ele>88.098022460938</ele>
        <time>2015-06-19T11:11:07Z</time>
      </trkpt>
      <trkpt lat="41.56185" lon="8.79748">
        <ele>86.17529296875</ele>
        <time>2015-06-19T11:11:27Z</time>
      </trkpt>
      <trkpt lat="41.56182" lon="8.79738">
        <ele>85.694580078125</ele>
        <time>2015-06-19T11:11:35Z</time>
      </trkpt>
      <trkpt lat="41.56178" lon="8.79733">
        <ele>85.694580078125</ele>
        <time>2015-06-19T11:11:40Z</time>
      </trkpt>
      <trkpt lat="41.56156" lon="8.79728">
        <ele>85.213989257812</ele>
        <time>2015-06-19T11:11:58Z</time>
      </trkpt>
      <trkpt lat="41.56148" lon="8.79722">
        <ele>87.6171875</ele>
        <time>2015-06-19T11:12:08Z</time>
      </trkpt>
      <trkpt lat="41.5613" lon="8.79721">
        <ele>89.539916992188</ele>
        <time>2015-06-19T11:12:26Z</time>
      </trkpt>
      <trkpt lat="41.56117" lon="8.79716">
        <ele>90.98193359375</ele>
        <time>2015-06-19T11:12:43Z</time>
      </trkpt>
      <trkpt lat="41.56113" lon="8.79714">
        <ele>90.501342773438</ele>
        <time>2015-06-19T11:12:50Z</time>
      </trkpt>
      <trkpt lat="41.56104" lon="8.79709">
        <ele>90.501342773438</ele>
        <time>2015-06-19T11:13:06Z</time>
      </trkpt>
      <trkpt lat="41.56098" lon="8.79699">
        <ele>89.539916992188</ele>
        <time>2015-06-19T11:13:22Z</time>
      </trkpt>
      <trkpt lat="41.56093" lon="8.79693">
        <ele>88.098022460938</ele>
        <time>2015-06-19T11:13:37Z</time>
      </trkpt>
      <trkpt lat="41.56091" lon="8.79686">
        <ele>85.213989257812</ele>
        <time>2015-06-19T11:13:57Z</time>
      </trkpt>
      <trkpt lat="41.56082" lon="8.79676">
        <ele>83.291381835938</ele>
        <time>2015-06-19T11:14:13Z</time>
      </trkpt>
      <trkpt lat="41.56078" lon="8.79672">
        <ele>82.330078125</ele>
        <time>2015-06-19T11:14:19Z</time>
      </trkpt>
      <trkpt lat="41.56068" lon="8.79661">
        <ele>81.368774414062</ele>
        <time>2015-06-19T11:14:36Z</time>
      </trkpt>
      <trkpt lat="41.5606" lon="8.79651">
        <ele>78.965454101562</ele>
        <time>2015-06-19T11:14:56Z</time>
      </trkpt>
      <trkpt lat="41.56051" lon="8.79647">
        <ele>77.042846679688</ele>
        <time>2015-06-19T11:15:15Z</time>
      </trkpt>
      <trkpt lat="41.56043" lon="8.79643">
        <ele>74.639526367188</ele>
        <time>2015-06-19T11:15:31Z</time>
      </trkpt>
      <trkpt lat="41.56034" lon="8.79634">
        <ele>72.236206054688</ele>
        <time>2015-06-19T11:15:50Z</time>
      </trkpt>
      <trkpt lat="41.56029" lon="8.79642">
        <ele>70.794189453125</ele>
        <time>2015-06-19T11:16:03Z</time>
      </trkpt>
      <trkpt lat="41.56028" lon="8.7965">
        <ele>68.390869140625</ele>
        <time>2015-06-19T11:16:18Z</time>
      </trkpt>
      <trkpt lat="41.56027" lon="8.79658">
        <ele>67.910278320312</ele>
        <time>2015-06-19T11:16:36Z</time>
      </trkpt>
      <trkpt lat="41.56022" lon="8.79664">
        <ele>65.0263671875</ele>
        <time>2015-06-19T11:16:51Z</time>
      </trkpt>
      <trkpt lat="41.56014" lon="8.79654">
        <ele>63.584350585938</ele>
        <time>2015-06-19T11:17:06Z</time>
      </trkpt>
      <trkpt lat="41.56007" lon="8.79648">
        <ele>62.142333984375</ele>
        <time>2015-06-19T11:17:20Z</time>
      </trkpt>
      <trkpt lat="41.56003" lon="8.79649">
        <ele>60.700317382812</ele>
        <time>2015-06-19T11:17:34Z</time>
      </trkpt>
      <trkpt lat="41.55999" lon="8.79647">
        <ele>59.739135742188</ele>
        <time>2015-06-19T11:17:50Z</time>
      </trkpt>
      <trkpt lat="41.55995" lon="8.79646">
        <ele>57.816528320312</ele>
        <time>2015-06-19T11:18:07Z</time>
      </trkpt>
      <trkpt lat="41.55988" lon="8.7964">
        <ele>55.893798828125</ele>
        <time>2015-06-19T11:18:21Z</time>
      </trkpt>
      <trkpt lat="41.55982" lon="8.79639">
        <ele>54.451782226562</ele>
        <time>2015-06-19T11:18:37Z</time>
      </trkpt>
      <trkpt lat="41.55976" lon="8.7964">
        <ele>53.009765625</ele>
        <time>2015-06-19T11:18:52Z</time>
      </trkpt>
      <trkpt lat="41.55968" lon="8.79639">
        <ele>50.1259765625</ele>
        <time>2015-06-19T11:19:07Z</time>
      </trkpt>
      <trkpt lat="41.55952" lon="8.79633">
        <ele>48.683959960938</ele>
        <time>2015-06-19T11:19:29Z</time>
      </trkpt>
      <trkpt lat="41.55945" lon="8.79634">
        <ele>47.241821289062</ele>
        <time>2015-06-19T11:19:45Z</time>
      </trkpt>
      <trkpt lat="41.55941" lon="8.79634">
        <ele>44.838623046875</ele>
        <time>2015-06-19T11:19:59Z</time>
      </trkpt>
      <trkpt lat="41.55935" lon="8.79637">
        <ele>42.435424804688</ele>
        <time>2015-06-19T11:20:18Z</time>
      </trkpt>
      <trkpt lat="41.55926" lon="8.79637">
        <ele>40.993408203125</ele>
        <time>2015-06-19T11:20:35Z</time>
      </trkpt>
      <trkpt lat="41.55924" lon="8.7965">
        <ele>40.032104492188</ele>
        <time>2015-06-19T11:20:51Z</time>
      </trkpt>
      <trkpt lat="41.55922" lon="8.79656">
        <ele>36.66748046875</ele>
        <time>2015-06-19T11:21:02Z</time>
      </trkpt>
      <trkpt lat="41.55909" lon="8.79654">
        <ele>34.26416015625</ele>
        <time>2015-06-19T11:21:20Z</time>
      </trkpt>
      <trkpt lat="41.55898" lon="8.7965">
        <ele>31.860717773438</ele>
        <time>2015-06-19T11:21:36Z</time>
      </trkpt>
      <trkpt lat="41.55891" lon="8.7965">
        <ele>30.899536132812</ele>
        <time>2015-06-19T11:21:51Z</time>
      </trkpt>
      <trkpt lat="41.55886" lon="8.79656">
        <ele>29.45751953125</ele>
        <time>2015-06-19T11:22:05Z</time>
      </trkpt>
      <trkpt lat="41.55881" lon="8.79659">
        <ele>26.092895507812</ele>
        <time>2015-06-19T11:22:20Z</time>
      </trkpt>
      <trkpt lat="41.55874" lon="8.79678">
        <ele>24.170288085938</ele>
        <time>2015-06-19T11:22:40Z</time>
      </trkpt>
      <trkpt lat="41.55871" lon="8.79686">
        <ele>23.689575195312</ele>
        <time>2015-06-19T11:22:47Z</time>
      </trkpt>
      <trkpt lat="41.5587" lon="8.79691">
        <ele>23.208984375</ele>
        <time>2015-06-19T11:22:51Z</time>
      </trkpt>
      <trkpt lat="41.55863" lon="8.79718">
        <ele>21.286376953125</ele>
        <time>2015-06-19T11:23:11Z</time>
      </trkpt>
      <trkpt lat="41.55849" lon="8.79745">
        <ele>20.8056640625</ele>
        <time>2015-06-19T11:23:32Z</time>
      </trkpt>
      <trkpt lat="41.55839" lon="8.79775">
        <ele>19.844360351562</ele>
        <time>2015-06-19T11:23:54Z</time>
      </trkpt>
      <trkpt lat="41.55831" lon="8.79798">
        <ele>18.40234375</ele>
        <time>2015-06-19T11:24:12Z</time>
      </trkpt>
      <trkpt lat="41.55822" lon="8.79807">
        <ele>17.921752929688</ele>
        <time>2015-06-19T11:24:26Z</time>
      </trkpt>
      <trkpt lat="41.55821" lon="8.79807">
        <ele>17.921752929688</ele>
        <time>2015-06-19T11:24:27Z</time>
      </trkpt>
      <trkpt lat="41.55818" lon="8.79811">
        <ele>16.96044921875</ele>
        <time>2015-06-19T11:24:31Z</time>
      </trkpt>
      <trkpt lat="41.55813" lon="8.79821">
        <ele>16.479736328125</ele>
        <time>2015-06-19T11:24:39Z</time>
      </trkpt>
      <trkpt lat="41.55812" lon="8.79833">
        <ele>15.518432617188</ele>
        <time>2015-06-19T11:24:48Z</time>
      </trkpt>
      <trkpt lat="41.55815" lon="8.79867">
        <ele>15.037719726562</ele>
        <time>2015-06-19T11:25:11Z</time>
      </trkpt>
      <trkpt lat="41.55817" lon="8.79895">
        <ele>15.037719726562</ele>
        <time>2015-06-19T11:25:29Z</time>
      </trkpt>
      <trkpt lat="41.55822" lon="8.79924">
        <ele>15.037719726562</ele>
        <time>2015-06-19T11:25:48Z</time>
      </trkpt>
      <trkpt lat="41.55825" lon="8.79933">
        <ele>14.557006835938</ele>
        <time>2015-06-19T11:25:55Z</time>
      </trkpt>
      <trkpt lat="41.55831" lon="8.79964">
        <ele>15.9990234375</ele>
        <time>2015-06-19T11:26:15Z</time>
      </trkpt>
      <trkpt lat="41.55837" lon="8.79989">
        <ele>17.441162109375</ele>
        <time>2015-06-19T11:26:33Z</time>
      </trkpt>
      <trkpt lat="41.55845" lon="8.80023">
        <ele>17.441162109375</ele>
        <time>2015-06-19T11:26:54Z</time>
      </trkpt>
      <trkpt lat="41.55853" lon="8.80056">
        <ele>16.479736328125</ele>
        <time>2015-06-19T11:27:15Z</time>
      </trkpt>
      <trkpt lat="41.55867" lon="8.80075">
        <ele>16.96044921875</ele>
        <time>2015-06-19T11:27:31Z</time>
      </trkpt>
      <trkpt lat="41.55866" lon="8.80088">
        <ele>17.441162109375</ele>
        <time>2015-06-19T11:27:47Z</time>
      </trkpt>
      <trkpt lat="41.55866" lon="8.80089">
        <ele>16.479736328125</ele>
        <time>2015-06-19T11:27:48Z</time>
      </trkpt>
      <trkpt lat="41.55851" lon="8.80101">
        <ele>16.479736328125</ele>
        <time>2015-06-19T11:28:05Z</time>
      </trkpt>
      <trkpt lat="41.55831" lon="8.80103">
        <ele>15.518432617188</ele>
        <time>2015-06-19T11:28:22Z</time>
      </trkpt>
      <trkpt lat="41.55824" lon="8.80116">
        <ele>16.479736328125</ele>
        <time>2015-06-19T11:28:32Z</time>
      </trkpt>
      <trkpt lat="41.55809" lon="8.80143">
        <ele>15.518432617188</ele>
        <time>2015-06-19T11:28:53Z</time>
      </trkpt>
      <trkpt lat="41.55798" lon="8.80163">
        <ele>12.634399414062</ele>
        <time>2015-06-19T11:29:11Z</time>
      </trkpt>
      <trkpt lat="41.55789" lon="8.80178">
        <ele>12.15380859375</ele>
        <time>2015-06-19T11:29:27Z</time>
      </trkpt>
      <trkpt lat="41.55788" lon="8.80178">
        <ele>11.673217773438</ele>
        <time>2015-06-19T11:29:28Z</time>
      </trkpt>
      <trkpt lat="41.55785" lon="8.80181">
        <ele>11.673217773438</ele>
        <time>2015-06-19T11:29:32Z</time>
      </trkpt>
      <trkpt lat="41.55781" lon="8.80188">
        <ele>10.711791992188</ele>
        <time>2015-06-19T11:29:38Z</time>
      </trkpt>
      <trkpt lat="41.55776" lon="8.80208">
        <ele>9.7506103515625</ele>
        <time>2015-06-19T11:29:53Z</time>
      </trkpt>
      <trkpt lat="41.55776" lon="8.8021">
        <ele>9.2698974609375</ele>
        <time>2015-06-19T11:29:54Z</time>
      </trkpt>
      <trkpt lat="41.55765" lon="8.80236">
        <ele>9.7506103515625</ele>
        <time>2015-06-19T11:30:12Z</time>
      </trkpt>
      <trkpt lat="41.55759" lon="8.8026">
        <ele>9.7506103515625</ele>
        <time>2015-06-19T11:30:29Z</time>
      </trkpt>
      <trkpt lat="41.55759" lon="8.80264">
        <ele>9.7506103515625</ele>
        <time>2015-06-19T11:30:32Z</time>
      </trkpt>
      <trkpt lat="41.55759" lon="8.80276">
        <ele>10.711791992188</ele>
        <time>2015-06-19T11:30:41Z</time>
      </trkpt>
      <trkpt lat="41.5576" lon="8.80295">
        <ele>11.192504882812</ele>
        <time>2015-06-19T11:30:56Z</time>
      </trkpt>
      <trkpt lat="41.55758" lon="8.80315">
        <ele>12.15380859375</ele>
        <time>2015-06-19T11:31:09Z</time>
      </trkpt>
      <trkpt lat="41.55754" lon="8.80342">
        <ele>13.115112304688</ele>
        <time>2015-06-19T11:31:26Z</time>
      </trkpt>
      <trkpt lat="41.55757" lon="8.80371">
        <ele>13.595825195312</ele>
        <time>2015-06-19T11:31:44Z</time>
      </trkpt>
      <trkpt lat="41.55755" lon="8.80404">
        <ele>14.076416015625</ele>
        <time>2015-06-19T11:32:03Z</time>
      </trkpt>
      <trkpt lat="41.55744" lon="8.80432">
        <ele>14.076416015625</ele>
        <time>2015-06-19T11:32:22Z</time>
      </trkpt>
      <trkpt lat="41.55743" lon="8.80433">
        <ele>14.076416015625</ele>
        <time>2015-06-19T11:32:23Z</time>
      </trkpt>
      <trkpt lat="41.55741" lon="8.80444">
        <ele>14.076416015625</ele>
        <time>2015-06-19T11:32:30Z</time>
      </trkpt>
      <trkpt lat="41.55732" lon="8.8048">
        <ele>12.15380859375</ele>
        <time>2015-06-19T11:32:53Z</time>
      </trkpt>
      <trkpt lat="41.55722" lon="8.8051">
        <ele>10.711791992188</ele>
        <time>2015-06-19T11:33:12Z</time>
      </trkpt>
      <trkpt lat="41.55721" lon="8.80511">
        <ele>10.711791992188</ele>
        <time>2015-06-19T11:33:13Z</time>
      </trkpt>
      <trkpt lat="41.55721" lon="8.80518">
        <ele>11.192504882812</ele>
        <time>2015-06-19T11:33:17Z</time>
      </trkpt>
      <trkpt lat="41.55717" lon="8.80539">
        <ele>12.15380859375</ele>
        <time>2015-06-19T11:33:32Z</time>
      </trkpt>
      <trkpt lat="41.55713" lon="8.80545">
        <ele>12.634399414062</ele>
        <time>2015-06-19T11:33:37Z</time>
      </trkpt>
      <trkpt lat="41.55706" lon="8.80567">
        <ele>12.15380859375</ele>
        <time>2015-06-19T11:33:51Z</time>
      </trkpt>
      <trkpt lat="41.55695" lon="8.80594">
        <ele>12.634399414062</ele>
        <time>2015-06-19T11:34:09Z</time>
      </trkpt>
      <trkpt lat="41.55685" lon="8.8063">
        <ele>12.15380859375</ele>
        <time>2015-06-19T11:34:32Z</time>
      </trkpt>
      <trkpt lat="41.55686" lon="8.80636">
        <ele>12.634399414062</ele>
        <time>2015-06-19T11:34:36Z</time>
      </trkpt>
      <trkpt lat="41.55683" lon="8.80646">
        <ele>13.115112304688</ele>
        <time>2015-06-19T11:34:43Z</time>
      </trkpt>
      <trkpt lat="41.5568" lon="8.80678">
        <ele>13.115112304688</ele>
        <time>2015-06-19T11:35:04Z</time>
      </trkpt>
      <trkpt lat="41.55672" lon="8.80689">
        <ele>12.15380859375</ele>
        <time>2015-06-19T11:35:13Z</time>
      </trkpt>
      <trkpt lat="41.55669" lon="8.8071">
        <ele>10.711791992188</ele>
        <time>2015-06-19T11:35:31Z</time>
      </trkpt>
      <trkpt lat="41.55667" lon="8.80714">
        <ele>9.7506103515625</ele>
        <time>2015-06-19T11:35:35Z</time>
      </trkpt>
      <trkpt lat="41.55658" lon="8.8073">
        <ele>8.7891845703125</ele>
        <time>2015-06-19T11:35:51Z</time>
      </trkpt>
      <trkpt lat="41.55661" lon="8.80748">
        <ele>9.7506103515625</ele>
        <time>2015-06-19T11:36:06Z</time>
      </trkpt>
      <trkpt lat="41.55663" lon="8.80752">
        <ele>10.231201171875</ele>
        <time>2015-06-19T11:36:10Z</time>
      </trkpt>
      <trkpt lat="41.55669" lon="8.80766">
        <ele>10.711791992188</ele>
        <time>2015-06-19T11:36:20Z</time>
      </trkpt>
      <trkpt lat="41.55674" lon="8.80778">
        <ele>10.711791992188</ele>
        <time>2015-06-19T11:36:28Z</time>
      </trkpt>
      <trkpt lat="41.55674" lon="8.80784">
        <ele>10.231201171875</ele>
        <time>2015-06-19T11:36:32Z</time>
      </trkpt>
      <trkpt lat="41.55676" lon="8.80792">
        <ele>10.711791992188</ele>
        <time>2015-06-19T11:36:37Z</time>
      </trkpt>
      <trkpt lat="41.55678" lon="8.80794">
        <ele>10.711791992188</ele>
        <time>2015-06-19T11:36:39Z</time>
      </trkpt>
      <trkpt lat="41.5568" lon="8.80801">
        <ele>10.231201171875</ele>
        <time>2015-06-19T11:36:43Z</time>
      </trkpt>
      <trkpt lat="41.55681" lon="8.80819">
        <ele>11.192504882812</ele>
        <time>2015-06-19T11:36:54Z</time>
      </trkpt>
      <trkpt lat="41.55681" lon="8.80823">
        <ele>11.192504882812</ele>
        <time>2015-06-19T11:36:57Z</time>
      </trkpt>
      <trkpt lat="41.55679" lon="8.80846">
        <ele>11.673217773438</ele>
        <time>2015-06-19T11:37:12Z</time>
      </trkpt>
      <trkpt lat="41.55687" lon="8.80866">
        <ele>12.15380859375</ele>
        <time>2015-06-19T11:37:30Z</time>
      </trkpt>
      <trkpt lat="41.55694" lon="8.80882">
        <ele>11.673217773438</ele>
        <time>2015-06-19T11:37:46Z</time>
      </trkpt>
      <trkpt lat="41.55704" lon="8.80899">
        <ele>10.711791992188</ele>
        <time>2015-06-19T11:38:04Z</time>
      </trkpt>
      <trkpt lat="41.55723" lon="8.80926">
        <ele>9.7506103515625</ele>
        <time>2015-06-19T11:38:23Z</time>
      </trkpt>
      <trkpt lat="41.55734" lon="8.80937">
        <ele>9.7506103515625</ele>
        <time>2015-06-19T11:38:39Z</time>
      </trkpt>
      <trkpt lat="41.55739" lon="8.80944">
        <ele>8.30859375</ele>
        <time>2015-06-19T11:38:51Z</time>
      </trkpt>
      <trkpt lat="41.55735" lon="8.80947">
        <ele>6.3858642578125</ele>
        <time>2015-06-19T11:38:59Z</time>
      </trkpt>
      <trkpt lat="41.55717" lon="8.80965">
        <ele>6.866455078125</ele>
        <time>2015-06-19T11:39:18Z</time>
      </trkpt>
      <trkpt lat="41.55702" lon="8.80979">
        <ele>4.94384765625</ele>
        <time>2015-06-19T11:39:37Z</time>
      </trkpt>
      <trkpt lat="41.55689" lon="8.80998">
        <ele>4.4632568359375</ele>
        <time>2015-06-19T11:39:56Z</time>
      </trkpt>
      <trkpt lat="41.55676" lon="8.81013">
        <ele>3.982666015625</ele>
        <time>2015-06-19T11:40:14Z</time>
      </trkpt>
      <trkpt lat="41.55663" lon="8.81023">
        <ele>3.982666015625</ele>
        <time>2015-06-19T11:40:29Z</time>
      </trkpt>
      <trkpt lat="41.55642" lon="8.81032">
        <ele>3.021240234375</ele>
        <time>2015-06-19T11:40:50Z</time>
      </trkpt>
      <trkpt lat="41.55625" lon="8.81046">
        <ele>3.021240234375</ele>
        <time>2015-06-19T11:41:08Z</time>
      </trkpt>
      <trkpt lat="41.55608" lon="8.81057">
        <ele>3.021240234375</ele>
        <time>2015-06-19T11:41:26Z</time>
      </trkpt>
      <trkpt lat="41.55601" lon="8.8106">
        <ele>3.501953125</ele>
        <time>2015-06-19T11:41:33Z</time>
      </trkpt>
      <trkpt lat="41.55578" lon="8.81061">
        <ele>3.982666015625</ele>
        <time>2015-06-19T11:41:54Z</time>
      </trkpt>
      <trkpt lat="41.55557" lon="8.81051">
        <ele>3.021240234375</ele>
        <time>2015-06-19T11:42:13Z</time>
      </trkpt>
      <trkpt lat="41.55544" lon="8.81048">
        <ele>3.982666015625</ele>
        <time>2015-06-19T11:42:30Z</time>
      </trkpt>
      <trkpt lat="41.55535" lon="8.81036">
        <ele>5.424560546875</ele>
        <time>2015-06-19T11:42:46Z</time>
      </trkpt>
      <trkpt lat="41.55535" lon="8.81036">
        <ele>5.9052734375</ele>
        <time>2015-06-19T11:42:47Z</time>
      </trkpt>
      <trkpt lat="41.55531" lon="8.81035">
        <ele>6.3858642578125</ele>
        <time>2015-06-19T11:42:52Z</time>
      </trkpt>
      <trkpt lat="41.55524" lon="8.81031">
        <ele>5.9052734375</ele>
        <time>2015-06-19T11:43:09Z</time>
      </trkpt>
      <trkpt lat="41.55519" lon="8.81037">
        <ele>6.3858642578125</ele>
        <time>2015-06-19T11:43:23Z</time>
      </trkpt>
      <trkpt lat="41.55516" lon="8.81046">
        <ele>5.9052734375</ele>
        <time>2015-06-19T11:43:37Z</time>
      </trkpt>
      <trkpt lat="41.55508" lon="8.81054">
        <ele>5.9052734375</ele>
        <time>2015-06-19T11:43:52Z</time>
      </trkpt>
      <trkpt lat="41.55503" lon="8.81063">
        <ele>5.424560546875</ele>
        <time>2015-06-19T11:44:09Z</time>
      </trkpt>
      <trkpt lat="41.55501" lon="8.81067">
        <ele>4.94384765625</ele>
        <time>2015-06-19T11:44:20Z</time>
      </trkpt>
      <trkpt lat="41.55499" lon="8.81074">
        <ele>4.94384765625</ele>
        <time>2015-06-19T11:44:37Z</time>
      </trkpt>
      <trkpt lat="41.555" lon="8.81077">
        <ele>4.94384765625</ele>
        <time>2015-06-19T11:44:54Z</time>
      </trkpt>
      <trkpt lat="41.55503" lon="8.81077">
        <ele>3.982666015625</ele>
        <time>2015-06-19T11:45:11Z</time>
      </trkpt>
      <trkpt lat="41.55502" lon="8.81078">
        <ele>3.982666015625</ele>
        <time>2015-06-19T11:45:59Z</time>
      </trkpt>
      <trkpt lat="41.55503" lon="8.81077">
        <ele>4.4632568359375</ele>
        <time>2015-06-19T11:46:49Z</time>
      </trkpt>
      <trkpt lat="41.55503" lon="8.81078">
        <ele>4.94384765625</ele>
        <time>2015-06-19T11:53:30Z</time>
      </trkpt>
      <trkpt lat="41.55503" lon="8.81077">
        <ele>6.3858642578125</ele>
        <time>2015-06-19T12:16:08Z</time>
      </trkpt>
      <trkpt lat="41.55504" lon="8.81076">
        <ele>6.3858642578125</ele>
        <time>2015-06-19T12:17:10Z</time>
      </trkpt>
      <trkpt lat="41.55502" lon="8.81076">
        <ele>6.866455078125</ele>
        <time>2015-06-19T12:18:05Z</time>
      </trkpt>
      <trkpt lat="41.55503" lon="8.81077">
        <ele>6.866455078125</ele>
        <time>2015-06-19T12:18:25Z</time>
      </trkpt>
      <trkpt lat="41.55502" lon="8.81079">
        <ele>6.866455078125</ele>
        <time>2015-06-19T12:18:34Z</time>
      </trkpt>
      <trkpt lat="41.55502" lon="8.8108">
        <ele>6.3858642578125</ele>
        <time>2015-06-19T12:18:57Z</time>
      </trkpt>
      <trkpt lat="41.55502" lon="8.81086">
        <ele>6.866455078125</ele>
        <time>2015-06-19T12:20:00Z</time>
      </trkpt>
      <trkpt lat="41.55503" lon="8.81099">
        <ele>6.866455078125</ele>
        <time>2015-06-19T12:20:19Z</time>
      </trkpt>
      <trkpt lat="41.55504" lon="8.81103">
        <ele>6.3858642578125</ele>
        <time>2015-06-19T12:20:36Z</time>
      </trkpt>
      <trkpt lat="41.55509" lon="8.81105">
        <ele>8.30859375</ele>
        <time>2015-06-19T12:20:54Z</time>
      </trkpt>
      <trkpt lat="41.55519" lon="8.81096">
        <ele>7.827880859375</ele>
        <time>2015-06-19T12:21:08Z</time>
      </trkpt>
      <trkpt lat="41.55528" lon="8.81082">
        <ele>7.827880859375</ele>
        <time>2015-06-19T12:21:22Z</time>
      </trkpt>
      <trkpt lat="41.55532" lon="8.81072">
        <ele>7.34716796875</ele>
        <time>2015-06-19T12:21:30Z</time>
      </trkpt>
      <trkpt lat="41.55534" lon="8.81059">
        <ele>6.3858642578125</ele>
        <time>2015-06-19T12:21:39Z</time>
      </trkpt>
      <trkpt lat="41.55539" lon="8.81057">
        <ele>5.9052734375</ele>
        <time>2015-06-19T12:21:44Z</time>
      </trkpt>
      <trkpt lat="41.55553" lon="8.81053">
        <ele>4.4632568359375</ele>
        <time>2015-06-19T12:22:02Z</time>
      </trkpt>
      <trkpt lat="41.55572" lon="8.81064">
        <ele>3.982666015625</ele>
        <time>2015-06-19T12:22:23Z</time>
      </trkpt>
      <trkpt lat="41.55583" lon="8.81081">
        <ele>3.982666015625</ele>
        <time>2015-06-19T12:22:40Z</time>
      </trkpt>
      <trkpt lat="41.55593" lon="8.81103">
        <ele>6.3858642578125</ele>
        <time>2015-06-19T12:23:01Z</time>
      </trkpt>
      <trkpt lat="41.5559" lon="8.8111">
        <ele>6.866455078125</ele>
        <time>2015-06-19T12:23:18Z</time>
      </trkpt>
      <trkpt lat="41.55588" lon="8.81114">
        <ele>7.34716796875</ele>
        <time>2015-06-19T12:23:48Z</time>
      </trkpt>
      <trkpt lat="41.55588" lon="8.81117">
        <ele>7.34716796875</ele>
        <time>2015-06-19T12:23:56Z</time>
      </trkpt>
      <trkpt lat="41.55588" lon="8.81149">
        <ele>6.866455078125</ele>
        <time>2015-06-19T12:24:17Z</time>
      </trkpt>
      <trkpt lat="41.55578" lon="8.8117">
        <ele>7.34716796875</ele>
        <time>2015-06-19T12:24:33Z</time>
      </trkpt>
      <trkpt lat="41.55567" lon="8.81199">
        <ele>8.30859375</ele>
        <time>2015-06-19T12:24:53Z</time>
      </trkpt>
      <trkpt lat="41.55558" lon="8.8121">
        <ele>8.7891845703125</ele>
        <time>2015-06-19T12:25:04Z</time>
      </trkpt>
      <trkpt lat="41.55554" lon="8.81216">
        <ele>9.2698974609375</ele>
        <time>2015-06-19T12:25:09Z</time>
      </trkpt>
      <trkpt lat="41.55543" lon="8.81238">
        <ele>10.231201171875</ele>
        <time>2015-06-19T12:25:26Z</time>
      </trkpt>
      <trkpt lat="41.55529" lon="8.81262">
        <ele>11.673217773438</ele>
        <time>2015-06-19T12:25:46Z</time>
      </trkpt>
      <trkpt lat="41.5551" lon="8.81275">
        <ele>11.673217773438</ele>
        <time>2015-06-19T12:26:03Z</time>
      </trkpt>
      <trkpt lat="41.55509" lon="8.81275">
        <ele>11.673217773438</ele>
        <time>2015-06-19T12:26:04Z</time>
      </trkpt>
      <trkpt lat="41.55503" lon="8.81295">
        <ele>11.673217773438</ele>
        <time>2015-06-19T12:26:19Z</time>
      </trkpt>
      <trkpt lat="41.55497" lon="8.81298">
        <ele>11.673217773438</ele>
        <time>2015-06-19T12:26:25Z</time>
      </trkpt>
      <trkpt lat="41.55498" lon="8.81302">
        <ele>11.673217773438</ele>
        <time>2015-06-19T12:26:30Z</time>
      </trkpt>
      <trkpt lat="41.55495" lon="8.81307">
        <ele>12.15380859375</ele>
        <time>2015-06-19T12:26:34Z</time>
      </trkpt>
      <trkpt lat="41.55485" lon="8.81324">
        <ele>10.711791992188</ele>
        <time>2015-06-19T12:26:46Z</time>
      </trkpt>
      <trkpt lat="41.55479" lon="8.81333">
        <ele>11.673217773438</ele>
        <time>2015-06-19T12:26:52Z</time>
      </trkpt>
      <trkpt lat="41.55463" lon="8.81359">
        <ele>12.15380859375</ele>
        <time>2015-06-19T12:27:13Z</time>
      </trkpt>
      <trkpt lat="41.55449" lon="8.81391">
        <ele>12.634399414062</ele>
        <time>2015-06-19T12:27:35Z</time>
      </trkpt>
      <trkpt lat="41.55445" lon="8.81408">
        <ele>12.634399414062</ele>
        <time>2015-06-19T12:27:45Z</time>
      </trkpt>
      <trkpt lat="41.55442" lon="8.81417">
        <ele>12.634399414062</ele>
        <time>2015-06-19T12:27:51Z</time>
      </trkpt>
      <trkpt lat="41.55442" lon="8.81453">
        <ele>12.634399414062</ele>
        <time>2015-06-19T12:28:13Z</time>
      </trkpt>
      <trkpt lat="41.55449" lon="8.81477">
        <ele>12.634399414062</ele>
        <time>2015-06-19T12:28:28Z</time>
      </trkpt>
      <trkpt lat="41.55449" lon="8.81482">
        <ele>12.15380859375</ele>
        <time>2015-06-19T12:28:31Z</time>
      </trkpt>
      <trkpt lat="41.55455" lon="8.81491">
        <ele>12.15380859375</ele>
        <time>2015-06-19T12:28:38Z</time>
      </trkpt>
      <trkpt lat="41.55467" lon="8.81512">
        <ele>11.192504882812</ele>
        <time>2015-06-19T12:28:54Z</time>
      </trkpt>
      <trkpt lat="41.5547" lon="8.81527">
        <ele>10.231201171875</ele>
        <time>2015-06-19T12:29:03Z</time>
      </trkpt>
      <trkpt lat="41.55477" lon="8.81544">
        <ele>9.7506103515625</ele>
        <time>2015-06-19T12:29:15Z</time>
      </trkpt>
      <trkpt lat="41.55484" lon="8.81552">
        <ele>9.2698974609375</ele>
        <time>2015-06-19T12:29:22Z</time>
      </trkpt>
      <trkpt lat="41.55495" lon="8.81576">
        <ele>8.7891845703125</ele>
        <time>2015-06-19T12:29:40Z</time>
      </trkpt>
      <trkpt lat="41.55502" lon="8.81578">
        <ele>9.2698974609375</ele>
        <time>2015-06-19T12:29:48Z</time>
      </trkpt>
      <trkpt lat="41.55522" lon="8.81596">
        <ele>8.7891845703125</ele>
        <time>2015-06-19T12:30:08Z</time>
      </trkpt>
      <trkpt lat="41.55527" lon="8.81609">
        <ele>8.30859375</ele>
        <time>2015-06-19T12:30:22Z</time>
      </trkpt>
      <trkpt lat="41.55537" lon="8.81626">
        <ele>6.3858642578125</ele>
        <time>2015-06-19T12:30:37Z</time>
      </trkpt>
      <trkpt lat="41.55542" lon="8.81633">
        <ele>5.424560546875</ele>
        <time>2015-06-19T12:30:43Z</time>
      </trkpt>
      <trkpt lat="41.55552" lon="8.81651">
        <ele>5.424560546875</ele>
        <time>2015-06-19T12:30:59Z</time>
      </trkpt>
      <trkpt lat="41.55561" lon="8.81665">
        <ele>3.982666015625</ele>
        <time>2015-06-19T12:31:14Z</time>
      </trkpt>
      <trkpt lat="41.55563" lon="8.81675">
        <ele>1.579345703125</ele>
        <time>2015-06-19T12:31:28Z</time>
      </trkpt>
      <trkpt lat="41.55563" lon="8.81676">
        <ele>1.0986328125</ele>
        <time>2015-06-19T12:31:29Z</time>
      </trkpt>
      <trkpt lat="41.55562" lon="8.81709">
        <ele>1.579345703125</ele>
        <time>2015-06-19T12:31:49Z</time>
      </trkpt>
      <trkpt lat="41.55558" lon="8.8172">
        <ele>3.501953125</ele>
        <time>2015-06-19T12:32:04Z</time>
      </trkpt>
      <trkpt lat="41.55555" lon="8.8173">
        <ele>4.94384765625</ele>
        <time>2015-06-19T12:32:18Z</time>
      </trkpt>
      <trkpt lat="41.55547" lon="8.81734">
        <ele>6.866455078125</ele>
        <time>2015-06-19T12:32:31Z</time>
      </trkpt>
      <trkpt lat="41.5554" lon="8.81736">
        <ele>8.7891845703125</ele>
        <time>2015-06-19T12:32:45Z</time>
      </trkpt>
      <trkpt lat="41.5554" lon="8.81739">
        <ele>10.711791992188</ele>
        <time>2015-06-19T12:32:51Z</time>
      </trkpt>
      <trkpt lat="41.55536" lon="8.81746">
        <ele>11.673217773438</ele>
        <time>2015-06-19T12:33:03Z</time>
      </trkpt>
      <trkpt lat="41.55529" lon="8.81757">
        <ele>14.557006835938</ele>
        <time>2015-06-19T12:33:17Z</time>
      </trkpt>
      <trkpt lat="41.55526" lon="8.8176">
        <ele>15.518432617188</ele>
        <time>2015-06-19T12:33:21Z</time>
      </trkpt>
      <trkpt lat="41.55523" lon="8.81762">
        <ele>16.479736328125</ele>
        <time>2015-06-19T12:33:24Z</time>
      </trkpt>
      <trkpt lat="41.55511" lon="8.8175">
        <ele>16.479736328125</ele>
        <time>2015-06-19T12:33:38Z</time>
      </trkpt>
      <trkpt lat="41.55491" lon="8.81731">
        <ele>14.076416015625</ele>
        <time>2015-06-19T12:33:57Z</time>
      </trkpt>
      <trkpt lat="41.55477" lon="8.81716">
        <ele>12.15380859375</ele>
        <time>2015-06-19T12:34:13Z</time>
      </trkpt>
      <trkpt lat="41.55469" lon="8.81708">
        <ele>10.711791992188</ele>
        <time>2015-06-19T12:34:24Z</time>
      </trkpt>
      <trkpt lat="41.55467" lon="8.81707">
        <ele>10.231201171875</ele>
        <time>2015-06-19T12:34:26Z</time>
      </trkpt>
      <trkpt lat="41.55459" lon="8.81705">
        <ele>9.2698974609375</ele>
        <time>2015-06-19T12:34:32Z</time>
      </trkpt>
      <trkpt lat="41.55438" lon="8.81694">
        <ele>10.711791992188</ele>
        <time>2015-06-19T12:34:51Z</time>
      </trkpt>
      <trkpt lat="41.55436" lon="8.81693">
        <ele>11.192504882812</ele>
        <time>2015-06-19T12:34:53Z</time>
      </trkpt>
      <trkpt lat="41.55431" lon="8.81693">
        <ele>11.192504882812</ele>
        <time>2015-06-19T12:34:56Z</time>
      </trkpt>
      <trkpt lat="41.55425" lon="8.81691">
        <ele>10.231201171875</ele>
        <time>2015-06-19T12:35:01Z</time>
      </trkpt>
      <trkpt lat="41.55419" lon="8.81691">
        <ele>10.711791992188</ele>
        <time>2015-06-19T12:35:05Z</time>
      </trkpt>
      <trkpt lat="41.55401" lon="8.81708">
        <ele>12.15380859375</ele>
        <time>2015-06-19T12:35:21Z</time>
      </trkpt>
      <trkpt lat="41.55398" lon="8.81712">
        <ele>12.634399414062</ele>
        <time>2015-06-19T12:35:25Z</time>
      </trkpt>
      <trkpt lat="41.55395" lon="8.81713">
        <ele>12.634399414062</ele>
        <time>2015-06-19T12:35:28Z</time>
      </trkpt>
      <trkpt lat="41.55385" lon="8.81716">
        <ele>14.076416015625</ele>
        <time>2015-06-19T12:35:39Z</time>
      </trkpt>
      <trkpt lat="41.5538" lon="8.81715">
        <ele>13.115112304688</ele>
        <time>2015-06-19T12:35:43Z</time>
      </trkpt>
      <trkpt lat="41.55378" lon="8.81713">
        <ele>13.115112304688</ele>
        <time>2015-06-19T12:35:45Z</time>
      </trkpt>
      <trkpt lat="41.5537" lon="8.81716">
        <ele>12.634399414062</ele>
        <time>2015-06-19T12:35:51Z</time>
      </trkpt>
      <trkpt lat="41.55368" lon="8.8172">
        <ele>12.634399414062</ele>
        <time>2015-06-19T12:35:54Z</time>
      </trkpt>
      <trkpt lat="41.55367" lon="8.81723">
        <ele>12.634399414062</ele>
        <time>2015-06-19T12:35:56Z</time>
      </trkpt>
      <trkpt lat="41.55357" lon="8.81742">
        <ele>13.595825195312</ele>
        <time>2015-06-19T12:36:11Z</time>
      </trkpt>
      <trkpt lat="41.55353" lon="8.81744">
        <ele>13.115112304688</ele>
        <time>2015-06-19T12:36:16Z</time>
      </trkpt>
      <trkpt lat="41.5533" lon="8.81752">
        <ele>12.634399414062</ele>
        <time>2015-06-19T12:36:33Z</time>
      </trkpt>
      <trkpt lat="41.55325" lon="8.81768">
        <ele>14.557006835938</ele>
        <time>2015-06-19T12:36:47Z</time>
      </trkpt>
      <trkpt lat="41.55317" lon="8.81779">
        <ele>15.9990234375</ele>
        <time>2015-06-19T12:37:00Z</time>
      </trkpt>
      <trkpt lat="41.55311" lon="8.81785">
        <ele>16.479736328125</ele>
        <time>2015-06-19T12:37:08Z</time>
      </trkpt>
      <trkpt lat="41.55305" lon="8.81808">
        <ele>18.883056640625</ele>
        <time>2015-06-19T12:37:26Z</time>
      </trkpt>
      <trkpt lat="41.55302" lon="8.81812">
        <ele>17.921752929688</ele>
        <time>2015-06-19T12:37:31Z</time>
      </trkpt>
      <trkpt lat="41.55296" lon="8.8183">
        <ele>20.324951171875</ele>
        <time>2015-06-19T12:37:47Z</time>
      </trkpt>
      <trkpt lat="41.55288" lon="8.81835">
        <ele>21.766967773438</ele>
        <time>2015-06-19T12:37:55Z</time>
      </trkpt>
      <trkpt lat="41.55277" lon="8.8185">
        <ele>22.728271484375</ele>
        <time>2015-06-19T12:38:09Z</time>
      </trkpt>
      <trkpt lat="41.55266" lon="8.81856">
        <ele>26.573608398438</ele>
        <time>2015-06-19T12:38:25Z</time>
      </trkpt>
      <trkpt lat="41.55265" lon="8.81857">
        <ele>26.573608398438</ele>
        <time>2015-06-19T12:38:26Z</time>
      </trkpt>
      <trkpt lat="41.55255" lon="8.81867">
        <ele>28.496215820312</ele>
        <time>2015-06-19T12:38:41Z</time>
      </trkpt>
      <trkpt lat="41.55245" lon="8.81867">
        <ele>30.418823242188</ele>
        <time>2015-06-19T12:38:53Z</time>
      </trkpt>
      <trkpt lat="41.55237" lon="8.81866">
        <ele>33.783447265625</ele>
        <time>2015-06-19T12:39:08Z</time>
      </trkpt>
      <trkpt lat="41.55222" lon="8.81872">
        <ele>36.66748046875</ele>
        <time>2015-06-19T12:39:25Z</time>
      </trkpt>
      <trkpt lat="41.55219" lon="8.81873">
        <ele>37.148071289062</ele>
        <time>2015-06-19T12:39:30Z</time>
      </trkpt>
      <trkpt lat="41.5521" lon="8.81876">
        <ele>38.590087890625</ele>
        <time>2015-06-19T12:39:39Z</time>
      </trkpt>
      <trkpt lat="41.55201" lon="8.81888">
        <ele>40.993408203125</ele>
        <time>2015-06-19T12:39:52Z</time>
      </trkpt>
      <trkpt lat="41.55187" lon="8.81887">
        <ele>44.358032226562</ele>
        <time>2015-06-19T12:40:08Z</time>
      </trkpt>
      <trkpt lat="41.55178" lon="8.81889">
        <ele>44.838623046875</ele>
        <time>2015-06-19T12:40:16Z</time>
      </trkpt>
      <trkpt lat="41.55164" lon="8.81897">
        <ele>46.280639648438</ele>
        <time>2015-06-19T12:40:29Z</time>
      </trkpt>
      <trkpt lat="41.55153" lon="8.819">
        <ele>47.241821289062</ele>
        <time>2015-06-19T12:40:38Z</time>
      </trkpt>
      <trkpt lat="41.55135" lon="8.81897">
        <ele>49.16455078125</ele>
        <time>2015-06-19T12:40:53Z</time>
      </trkpt>
      <trkpt lat="41.55118" lon="8.81889">
        <ele>45.319213867188</ele>
        <time>2015-06-19T12:41:12Z</time>
      </trkpt>
      <trkpt lat="41.55112" lon="8.81877">
        <ele>42.916015625</ele>
        <time>2015-06-19T12:41:28Z</time>
      </trkpt>
      <trkpt lat="41.55107" lon="8.81874">
        <ele>41.954711914062</ele>
        <time>2015-06-19T12:41:33Z</time>
      </trkpt>
      <trkpt lat="41.55103" lon="8.81868">
        <ele>38.109375</ele>
        <time>2015-06-19T12:41:47Z</time>
      </trkpt>
      <trkpt lat="41.55096" lon="8.81861">
        <ele>37.148071289062</ele>
        <time>2015-06-19T12:42:02Z</time>
      </trkpt>
      <trkpt lat="41.5509" lon="8.81856">
        <ele>34.744873046875</ele>
        <time>2015-06-19T12:42:14Z</time>
      </trkpt>
      <trkpt lat="41.55086" lon="8.81854">
        <ele>32.341552734375</ele>
        <time>2015-06-19T12:42:23Z</time>
      </trkpt>
      <trkpt lat="41.55079" lon="8.81847">
        <ele>29.45751953125</ele>
        <time>2015-06-19T12:42:38Z</time>
      </trkpt>
      <trkpt lat="41.5507" lon="8.81837">
        <ele>28.496215820312</ele>
        <time>2015-06-19T12:42:52Z</time>
      </trkpt>
      <trkpt lat="41.55068" lon="8.81826">
        <ele>26.573608398438</ele>
        <time>2015-06-19T12:43:02Z</time>
      </trkpt>
      <trkpt lat="41.55066" lon="8.81825">
        <ele>26.092895507812</ele>
        <time>2015-06-19T12:43:04Z</time>
      </trkpt>
      <trkpt lat="41.55063" lon="8.81816">
        <ele>25.131713867188</ele>
        <time>2015-06-19T12:43:10Z</time>
      </trkpt>
      <trkpt lat="41.5506" lon="8.81808">
        <ele>24.170288085938</ele>
        <time>2015-06-19T12:43:18Z</time>
      </trkpt>
      <trkpt lat="41.55044" lon="8.81804">
        <ele>21.766967773438</ele>
        <time>2015-06-19T12:43:32Z</time>
      </trkpt>
      <trkpt lat="41.55031" lon="8.81785">
        <ele>19.36376953125</ele>
        <time>2015-06-19T12:43:46Z</time>
      </trkpt>
      <trkpt lat="41.5503" lon="8.81783">
        <ele>19.36376953125</ele>
        <time>2015-06-19T12:43:48Z</time>
      </trkpt>
      <trkpt lat="41.55017" lon="8.81773">
        <ele>17.441162109375</ele>
        <time>2015-06-19T12:44:00Z</time>
      </trkpt>
      <trkpt lat="41.55006" lon="8.8177">
        <ele>15.037719726562</ele>
        <time>2015-06-19T12:44:10Z</time>
      </trkpt>
      <trkpt lat="41.54992" lon="8.81757">
        <ele>12.634399414062</ele>
        <time>2015-06-19T12:44:26Z</time>
      </trkpt>
      <trkpt lat="41.54989" lon="8.81754">
        <ele>10.711791992188</ele>
        <time>2015-06-19T12:44:30Z</time>
      </trkpt>
      <trkpt lat="41.54975" lon="8.81753">
        <ele>9.7506103515625</ele>
        <time>2015-06-19T12:44:43Z</time>
      </trkpt>
      <trkpt lat="41.54968" lon="8.81753">
        <ele>7.827880859375</ele>
        <time>2015-06-19T12:44:50Z</time>
      </trkpt>
      <trkpt lat="41.54952" lon="8.81749">
        <ele>6.866455078125</ele>
        <time>2015-06-19T12:45:04Z</time>
      </trkpt>
      <trkpt lat="41.54939" lon="8.81756">
        <ele>7.827880859375</ele>
        <time>2015-06-19T12:45:18Z</time>
      </trkpt>
      <trkpt lat="41.54918" lon="8.81759">
        <ele>6.3858642578125</ele>
        <time>2015-06-19T12:45:33Z</time>
      </trkpt>
      <trkpt lat="41.54917" lon="8.81758">
        <ele>6.3858642578125</ele>
        <time>2015-06-19T12:45:34Z</time>
      </trkpt>
      <trkpt lat="41.54908" lon="8.81755">
        <ele>6.3858642578125</ele>
        <time>2015-06-19T12:45:43Z</time>
      </trkpt>
      <trkpt lat="41.54901" lon="8.81749">
        <ele>5.9052734375</ele>
        <time>2015-06-19T12:45:50Z</time>
      </trkpt>
      <trkpt lat="41.54897" lon="8.81744">
        <ele>5.9052734375</ele>
        <time>2015-06-19T12:45:56Z</time>
      </trkpt>
      <trkpt lat="41.54888" lon="8.8174">
        <ele>4.94384765625</ele>
        <time>2015-06-19T12:46:10Z</time>
      </trkpt>
      <trkpt lat="41.5488" lon="8.81739">
        <ele>4.94384765625</ele>
        <time>2015-06-19T12:46:22Z</time>
      </trkpt>
      <trkpt lat="41.54875" lon="8.81731">
        <ele>4.94384765625</ele>
        <time>2015-06-19T12:46:37Z</time>
      </trkpt>
      <trkpt lat="41.5487" lon="8.81727">
        <ele>4.4632568359375</ele>
        <time>2015-06-19T12:46:45Z</time>
      </trkpt>
      <trkpt lat="41.54868" lon="8.81727">
        <ele>3.982666015625</ele>
        <time>2015-06-19T12:46:47Z</time>
      </trkpt>
      <trkpt lat="41.54866" lon="8.81727">
        <ele>3.982666015625</ele>
        <time>2015-06-19T12:46:49Z</time>
      </trkpt>
      <trkpt lat="41.54858" lon="8.81724">
        <ele>3.501953125</ele>
        <time>2015-06-19T12:46:56Z</time>
      </trkpt>
      <trkpt lat="41.54853" lon="8.81723">
        <ele>3.501953125</ele>
        <time>2015-06-19T12:47:01Z</time>
      </trkpt>
      <trkpt lat="41.54839" lon="8.81741">
        <ele>3.501953125</ele>
        <time>2015-06-19T12:47:18Z</time>
      </trkpt>
      <trkpt lat="41.54824" lon="8.81748">
        <ele>2.5406494140625</ele>
        <time>2015-06-19T12:47:30Z</time>
      </trkpt>
      <trkpt lat="41.54807" lon="8.81769">
        <ele>4.4632568359375</ele>
        <time>2015-06-19T12:47:47Z</time>
      </trkpt>
      <trkpt lat="41.548" lon="8.81794">
        <ele>3.982666015625</ele>
        <time>2015-06-19T12:48:03Z</time>
      </trkpt>
      <trkpt lat="41.54794" lon="8.81832">
        <ele>4.94384765625</ele>
        <time>2015-06-19T12:48:24Z</time>
      </trkpt>
      <trkpt lat="41.54786" lon="8.81842">
        <ele>5.424560546875</ele>
        <time>2015-06-19T12:48:35Z</time>
      </trkpt>
      <trkpt lat="41.54769" lon="8.81866">
        <ele>4.4632568359375</ele>
        <time>2015-06-19T12:48:55Z</time>
      </trkpt>
      <trkpt lat="41.54752" lon="8.81894">
        <ele>3.982666015625</ele>
        <time>2015-06-19T12:49:13Z</time>
      </trkpt>
      <trkpt lat="41.54743" lon="8.81927">
        <ele>3.982666015625</ele>
        <time>2015-06-19T12:49:32Z</time>
      </trkpt>
      <trkpt lat="41.54742" lon="8.81935">
        <ele>3.982666015625</ele>
        <time>2015-06-19T12:49:36Z</time>
      </trkpt>
      <trkpt lat="41.54739" lon="8.81939">
        <ele>3.501953125</ele>
        <time>2015-06-19T12:49:40Z</time>
      </trkpt>
      <trkpt lat="41.54731" lon="8.81976">
        <ele>4.4632568359375</ele>
        <time>2015-06-19T12:50:00Z</time>
      </trkpt>
      <trkpt lat="41.54737" lon="8.82016">
        <ele>4.94384765625</ele>
        <time>2015-06-19T12:50:21Z</time>
      </trkpt>
      <trkpt lat="41.54736" lon="8.82045">
        <ele>6.3858642578125</ele>
        <time>2015-06-19T12:50:38Z</time>
      </trkpt>
      <trkpt lat="41.5473" lon="8.8207">
        <ele>7.34716796875</ele>
        <time>2015-06-19T12:50:55Z</time>
      </trkpt>
      <trkpt lat="41.54715" lon="8.82094">
        <ele>7.827880859375</ele>
        <time>2015-06-19T12:51:11Z</time>
      </trkpt>
      <trkpt lat="41.54705" lon="8.82115">
        <ele>7.827880859375</ele>
        <time>2015-06-19T12:51:25Z</time>
      </trkpt>
      <trkpt lat="41.54698" lon="8.82145">
        <ele>6.866455078125</ele>
        <time>2015-06-19T12:51:42Z</time>
      </trkpt>
      <trkpt lat="41.54693" lon="8.8217">
        <ele>6.3858642578125</ele>
        <time>2015-06-19T12:51:58Z</time>
      </trkpt>
      <trkpt lat="41.54687" lon="8.82207">
        <ele>6.866455078125</ele>
        <time>2015-06-19T12:52:19Z</time>
      </trkpt>
      <trkpt lat="41.54686" lon="8.82228">
        <ele>6.3858642578125</ele>
        <time>2015-06-19T12:52:32Z</time>
      </trkpt>
      <trkpt lat="41.54693" lon="8.82258">
        <ele>7.827880859375</ele>
        <time>2015-06-19T12:52:50Z</time>
      </trkpt>
      <trkpt lat="41.54697" lon="8.82277">
        <ele>9.7506103515625</ele>
        <time>2015-06-19T12:53:03Z</time>
      </trkpt>
      <trkpt lat="41.5469" lon="8.82287">
        <ele>11.192504882812</ele>
        <time>2015-06-19T12:53:17Z</time>
      </trkpt>
      <trkpt lat="41.54679" lon="8.82294">
        <ele>10.711791992188</ele>
        <time>2015-06-19T12:53:29Z</time>
      </trkpt>
      <trkpt lat="41.54675" lon="8.82299">
        <ele>9.7506103515625</ele>
        <time>2015-06-19T12:53:34Z</time>
      </trkpt>
      <trkpt lat="41.54673" lon="8.82319">
        <ele>10.711791992188</ele>
        <time>2015-06-19T12:53:48Z</time>
      </trkpt>
      <trkpt lat="41.54668" lon="8.82343">
        <ele>12.634399414062</ele>
        <time>2015-06-19T12:54:06Z</time>
      </trkpt>
      <trkpt lat="41.54673" lon="8.8237">
        <ele>14.076416015625</ele>
        <time>2015-06-19T12:54:22Z</time>
      </trkpt>
      <trkpt lat="41.54679" lon="8.82393">
        <ele>14.557006835938</ele>
        <time>2015-06-19T12:54:37Z</time>
      </trkpt>
      <trkpt lat="41.54684" lon="8.82406">
        <ele>13.115112304688</ele>
        <time>2015-06-19T12:54:49Z</time>
      </trkpt>
      <trkpt lat="41.54691" lon="8.8242">
        <ele>11.673217773438</ele>
        <time>2015-06-19T12:55:03Z</time>
      </trkpt>
      <trkpt lat="41.54694" lon="8.82428">
        <ele>11.192504882812</ele>
        <time>2015-06-19T12:55:14Z</time>
      </trkpt>
      <trkpt lat="41.54709" lon="8.82448">
        <ele>8.30859375</ele>
        <time>2015-06-19T12:55:31Z</time>
      </trkpt>
      <trkpt lat="41.54697" lon="8.82452">
        <ele>7.34716796875</ele>
        <time>2015-06-19T12:55:43Z</time>
      </trkpt>
      <trkpt lat="41.54684" lon="8.82447">
        <ele>7.827880859375</ele>
        <time>2015-06-19T12:55:56Z</time>
      </trkpt>
      <trkpt lat="41.54679" lon="8.82468">
        <ele>5.424560546875</ele>
        <time>2015-06-19T12:56:14Z</time>
      </trkpt>
      <trkpt lat="41.54682" lon="8.82492">
        <ele>4.4632568359375</ele>
        <time>2015-06-19T12:56:30Z</time>
      </trkpt>
      <trkpt lat="41.5468" lon="8.8253">
        <ele>3.982666015625</ele>
        <time>2015-06-19T12:56:51Z</time>
      </trkpt>
      <trkpt lat="41.5468" lon="8.82565">
        <ele>2.5406494140625</ele>
        <time>2015-06-19T12:57:10Z</time>
      </trkpt>
      <trkpt lat="41.54679" lon="8.82575">
        <ele>3.021240234375</ele>
        <time>2015-06-19T12:57:16Z</time>
      </trkpt>
      <trkpt lat="41.54672" lon="8.82578">
        <ele>3.021240234375</ele>
        <time>2015-06-19T12:57:22Z</time>
      </trkpt>
      <trkpt lat="41.54651" lon="8.82595">
        <ele>1.579345703125</ele>
        <time>2015-06-19T12:57:41Z</time>
      </trkpt>
      <trkpt lat="41.54647" lon="8.82591">
        <ele>2.5406494140625</ele>
        <time>2015-06-19T12:57:46Z</time>
      </trkpt>
      <trkpt lat="41.54645" lon="8.82586">
        <ele>2.5406494140625</ele>
        <time>2015-06-19T12:57:50Z</time>
      </trkpt>
      <trkpt lat="41.54643" lon="8.82586">
        <ele>2.06005859375</ele>
        <time>2015-06-19T12:57:52Z</time>
      </trkpt>
      <trkpt lat="41.54635" lon="8.82599">
        <ele>1.0986328125</ele>
        <time>2015-06-19T12:58:07Z</time>
      </trkpt>
      <trkpt lat="41.54632" lon="8.82599">
        <ele>2.06005859375</ele>
        <time>2015-06-19T12:58:21Z</time>
      </trkpt>
      <trkpt lat="41.54622" lon="8.82597">
        <ele>1.0986328125</ele>
        <time>2015-06-19T12:58:33Z</time>
      </trkpt>
      <trkpt lat="41.54615" lon="8.8261">
        <ele>0.137451171875</ele>
        <time>2015-06-19T12:58:49Z</time>
      </trkpt>
      <trkpt lat="41.54614" lon="8.82613">
        <ele>0.137451171875</ele>
        <time>2015-06-19T12:58:52Z</time>
      </trkpt>
      <trkpt lat="41.54602" lon="8.82627">
        <ele>-0.3433837890625</ele>
        <time>2015-06-19T12:59:09Z</time>
      </trkpt>
      <trkpt lat="41.54593" lon="8.82641">
        <ele>2.06005859375</ele>
        <time>2015-06-19T12:59:25Z</time>
      </trkpt>
      <trkpt lat="41.54588" lon="8.82655">
        <ele>2.06005859375</ele>
        <time>2015-06-19T12:59:37Z</time>
      </trkpt>
      <trkpt lat="41.54589" lon="8.82659">
        <ele>3.501953125</ele>
        <time>2015-06-19T12:59:41Z</time>
      </trkpt>
      <trkpt lat="41.54591" lon="8.82667">
        <ele>3.501953125</ele>
        <time>2015-06-19T12:59:47Z</time>
      </trkpt>
      <trkpt lat="41.54592" lon="8.82677">
        <ele>3.982666015625</ele>
        <time>2015-06-19T12:59:54Z</time>
      </trkpt>
      <trkpt lat="41.54585" lon="8.8269">
        <ele>3.021240234375</ele>
        <time>2015-06-19T13:00:08Z</time>
      </trkpt>
      <trkpt lat="41.54583" lon="8.82704">
        <ele>3.021240234375</ele>
        <time>2015-06-19T13:00:18Z</time>
      </trkpt>
      <trkpt lat="41.54582" lon="8.82711">
        <ele>3.501953125</ele>
        <time>2015-06-19T13:00:23Z</time>
      </trkpt>
      <trkpt lat="41.5458" lon="8.82723">
        <ele>3.501953125</ele>
        <time>2015-06-19T13:00:31Z</time>
      </trkpt>
      <trkpt lat="41.54578" lon="8.82738">
        <ele>3.021240234375</ele>
        <time>2015-06-19T13:00:41Z</time>
      </trkpt>
      <trkpt lat="41.54568" lon="8.8276">
        <ele>3.501953125</ele>
        <time>2015-06-19T13:00:59Z</time>
      </trkpt>
      <trkpt lat="41.54566" lon="8.82764">
        <ele>3.501953125</ele>
        <time>2015-06-19T13:01:03Z</time>
      </trkpt>
      <trkpt lat="41.54563" lon="8.82765">
        <ele>3.501953125</ele>
        <time>2015-06-19T13:01:06Z</time>
      </trkpt>
      <trkpt lat="41.54559" lon="8.82771">
        <ele>3.021240234375</ele>
        <time>2015-06-19T13:01:14Z</time>
      </trkpt>
      <trkpt lat="41.54559" lon="8.82788">
        <ele>3.021240234375</ele>
        <time>2015-06-19T13:01:29Z</time>
      </trkpt>
      <trkpt lat="41.54554" lon="8.82787">
        <ele>2.06005859375</ele>
        <time>2015-06-19T13:01:39Z</time>
      </trkpt>
      <trkpt lat="41.54548" lon="8.82788">
        <ele>1.579345703125</ele>
        <time>2015-06-19T13:01:48Z</time>
      </trkpt>
      <trkpt lat="41.54546" lon="8.82795">
        <ele>0.6180419921875</ele>
        <time>2015-06-19T13:01:54Z</time>
      </trkpt>
      <trkpt lat="41.5455" lon="8.82805">
        <ele>2.06005859375</ele>
        <time>2015-06-19T13:02:03Z</time>
      </trkpt>
      <trkpt lat="41.54552" lon="8.82832">
        <ele>2.06005859375</ele>
        <time>2015-06-19T13:02:21Z</time>
      </trkpt>
      <trkpt lat="41.54552" lon="8.82835">
        <ele>1.579345703125</ele>
        <time>2015-06-19T13:02:25Z</time>
      </trkpt>
      <trkpt lat="41.54559" lon="8.82838">
        <ele>2.06005859375</ele>
        <time>2015-06-19T13:02:33Z</time>
      </trkpt>
      <trkpt lat="41.54563" lon="8.82841">
        <ele>2.5406494140625</ele>
        <time>2015-06-19T13:02:38Z</time>
      </trkpt>
      <trkpt lat="41.54566" lon="8.82844">
        <ele>2.5406494140625</ele>
        <time>2015-06-19T13:02:41Z</time>
      </trkpt>
      <trkpt lat="41.54566" lon="8.82847">
        <ele>2.5406494140625</ele>
        <time>2015-06-19T13:02:43Z</time>
      </trkpt>
      <trkpt lat="41.54567" lon="8.82857">
        <ele>3.501953125</ele>
        <time>2015-06-19T13:02:52Z</time>
      </trkpt>
      <trkpt lat="41.5457" lon="8.82869">
        <ele>2.06005859375</ele>
        <time>2015-06-19T13:03:03Z</time>
      </trkpt>
      <trkpt lat="41.54575" lon="8.82872">
        <ele>3.501953125</ele>
        <time>2015-06-19T13:03:12Z</time>
      </trkpt>
      <trkpt lat="41.54581" lon="8.82868">
        <ele>3.982666015625</ele>
        <time>2015-06-19T13:03:18Z</time>
      </trkpt>
      <trkpt lat="41.54582" lon="8.82865">
        <ele>4.4632568359375</ele>
        <time>2015-06-19T13:03:21Z</time>
      </trkpt>
      <trkpt lat="41.54589" lon="8.82845">
        <ele>5.9052734375</ele>
        <time>2015-06-19T13:03:37Z</time>
      </trkpt>
      <trkpt lat="41.54601" lon="8.82817">
        <ele>6.866455078125</ele>
        <time>2015-06-19T13:03:56Z</time>
      </trkpt>
      <trkpt lat="41.54604" lon="8.82816">
        <ele>6.866455078125</ele>
        <time>2015-06-19T13:03:59Z</time>
      </trkpt>
      <trkpt lat="41.5461" lon="8.82817">
        <ele>8.7891845703125</ele>
        <time>2015-06-19T13:04:05Z</time>
      </trkpt>
      <trkpt lat="41.54616" lon="8.82814">
        <ele>9.2698974609375</ele>
        <time>2015-06-19T13:04:11Z</time>
      </trkpt>
      <trkpt lat="41.54627" lon="8.82827">
        <ele>9.2698974609375</ele>
        <time>2015-06-19T13:04:25Z</time>
      </trkpt>
      <trkpt lat="41.54631" lon="8.82832">
        <ele>8.30859375</ele>
        <time>2015-06-19T13:04:31Z</time>
      </trkpt>
      <trkpt lat="41.54647" lon="8.82834">
        <ele>8.7891845703125</ele>
        <time>2015-06-19T13:04:45Z</time>
      </trkpt>
      <trkpt lat="41.54654" lon="8.82835">
        <ele>9.7506103515625</ele>
        <time>2015-06-19T13:04:51Z</time>
      </trkpt>
      <trkpt lat="41.54661" lon="8.82842">
        <ele>10.231201171875</ele>
        <time>2015-06-19T13:05:03Z</time>
      </trkpt>
      <trkpt lat="41.54669" lon="8.82848">
        <ele>10.231201171875</ele>
        <time>2015-06-19T13:05:11Z</time>
      </trkpt>
      <trkpt lat="41.5468" lon="8.8285">
        <ele>9.7506103515625</ele>
        <time>2015-06-19T13:05:22Z</time>
      </trkpt>
      <trkpt lat="41.54684" lon="8.8285">
        <ele>8.7891845703125</ele>
        <time>2015-06-19T13:05:25Z</time>
      </trkpt>
      <trkpt lat="41.54698" lon="8.82858">
        <ele>7.827880859375</ele>
        <time>2015-06-19T13:05:42Z</time>
      </trkpt>
      <trkpt lat="41.5471" lon="8.82851">
        <ele>7.34716796875</ele>
        <time>2015-06-19T13:05:53Z</time>
      </trkpt>
      <trkpt lat="41.54721" lon="8.82831">
        <ele>7.34716796875</ele>
        <time>2015-06-19T13:06:08Z</time>
      </trkpt>
      <trkpt lat="41.54731" lon="8.82831">
        <ele>6.866455078125</ele>
        <time>2015-06-19T13:06:18Z</time>
      </trkpt>
      <trkpt lat="41.54738" lon="8.82855">
        <ele>7.34716796875</ele>
        <time>2015-06-19T13:06:35Z</time>
      </trkpt>
      <trkpt lat="41.5474" lon="8.82856">
        <ele>8.30859375</ele>
        <time>2015-06-19T13:06:37Z</time>
      </trkpt>
      <trkpt lat="41.54744" lon="8.8286">
        <ele>8.30859375</ele>
        <time>2015-06-19T13:06:41Z</time>
      </trkpt>
      <trkpt lat="41.54749" lon="8.82862">
        <ele>8.7891845703125</ele>
        <time>2015-06-19T13:06:46Z</time>
      </trkpt>
      <trkpt lat="41.54777" lon="8.82876">
        <ele>8.30859375</ele>
        <time>2015-06-19T13:07:08Z</time>
      </trkpt>
      <trkpt lat="41.548" lon="8.82888">
        <ele>8.7891845703125</ele>
        <time>2015-06-19T13:07:25Z</time>
      </trkpt>
      <trkpt lat="41.54824" lon="8.82902">
        <ele>6.866455078125</ele>
        <time>2015-06-19T13:07:44Z</time>
      </trkpt>
      <trkpt lat="41.54843" lon="8.82922">
        <ele>7.34716796875</ele>
        <time>2015-06-19T13:08:01Z</time>
      </trkpt>
      <trkpt lat="41.54854" lon="8.82948">
        <ele>7.34716796875</ele>
        <time>2015-06-19T13:08:17Z</time>
      </trkpt>
      <trkpt lat="41.54855" lon="8.82972">
        <ele>9.7506103515625</ele>
        <time>2015-06-19T13:08:33Z</time>
      </trkpt>
      <trkpt lat="41.54854" lon="8.82974">
        <ele>10.231201171875</ele>
        <time>2015-06-19T13:08:35Z</time>
      </trkpt>
      <trkpt lat="41.54853" lon="8.83008">
        <ele>13.115112304688</ele>
        <time>2015-06-19T13:08:56Z</time>
      </trkpt>
      <trkpt lat="41.54848" lon="8.83047">
        <ele>13.115112304688</ele>
        <time>2015-06-19T13:09:18Z</time>
      </trkpt>
      <trkpt lat="41.54841" lon="8.83083">
        <ele>11.673217773438</ele>
        <time>2015-06-19T13:09:39Z</time>
      </trkpt>
      <trkpt lat="41.54838" lon="8.83116">
        <ele>11.192504882812</ele>
        <time>2015-06-19T13:09:57Z</time>
      </trkpt>
      <trkpt lat="41.5484" lon="8.83147">
        <ele>11.673217773438</ele>
        <time>2015-06-19T13:10:13Z</time>
      </trkpt>
      <trkpt lat="41.54843" lon="8.83162">
        <ele>12.15380859375</ele>
        <time>2015-06-19T13:10:21Z</time>
      </trkpt>
      <trkpt lat="41.54848" lon="8.83188">
        <ele>12.15380859375</ele>
        <time>2015-06-19T13:10:40Z</time>
      </trkpt>
      <trkpt lat="41.54848" lon="8.83188">
        <ele>12.634399414062</ele>
        <time>2015-06-19T13:10:45Z</time>
      </trkpt>
      <trkpt lat="41.54867" lon="8.83219">
        <ele>11.192504882812</ele>
        <time>2015-06-19T13:11:06Z</time>
      </trkpt>
      <trkpt lat="41.54883" lon="8.83244">
        <ele>10.711791992188</ele>
        <time>2015-06-19T13:11:24Z</time>
      </trkpt>
      <trkpt lat="41.54899" lon="8.83261">
        <ele>8.7891845703125</ele>
        <time>2015-06-19T13:11:40Z</time>
      </trkpt>
      <trkpt lat="41.54922" lon="8.83284">
        <ele>6.866455078125</ele>
        <time>2015-06-19T13:12:01Z</time>
      </trkpt>
      <trkpt lat="41.54936" lon="8.83298">
        <ele>3.501953125</ele>
        <time>2015-06-19T13:12:17Z</time>
      </trkpt>
      <trkpt lat="41.54949" lon="8.83311">
        <ele>0.6180419921875</ele>
        <time>2015-06-19T13:12:30Z</time>
      </trkpt>
      <trkpt lat="41.54955" lon="8.83319">
        <ele>0.137451171875</ele>
        <time>2015-06-19T13:12:37Z</time>
      </trkpt>
      <trkpt lat="41.54951" lon="8.83326">
        <ele>0.137451171875</ele>
        <time>2015-06-19T13:12:44Z</time>
      </trkpt>
      <trkpt lat="41.54935" lon="8.83318">
        <ele>0.6180419921875</ele>
        <time>2015-06-19T13:13:05Z</time>
      </trkpt>
      <trkpt lat="41.54935" lon="8.83317">
        <ele>-0.3433837890625</ele>
        <time>2015-06-19T13:13:07Z</time>
      </trkpt>
    </trkseg>
  </trk>
</gpx>